<?xml version="1.0" encoding="UTF-8"?>
<gpx xmlns:xsi="http://www.w3.org/2001/XMLSchema-instance" xsi:schemaLocation="http://www.topografix.com/GPX/1/1 http://www.topografix.com/GPX/1/1/gpx.xsd" creator="StravaGPX" version="1.1" xmlns="http://www.topografix.com/GPX/1/1">
 <metadata>
  <time>2025-12-24T11:46:57Z</time>
 </metadata>
 <trk>
  <name>Diamond Hill</name>
  <type>walking</type>
  <trkseg>
   <trkpt lat="53.5503350" lon="-9.9456120">
    <ele>81.7</ele>
    <time>2025-12-24T11:46:57Z</time>
   </trkpt>
   <trkpt lat="53.5503560" lon="-9.9455440">
    <ele>67.0</ele>
    <time>2025-12-24T11:47:34Z</time>
   </trkpt>
   <trkpt lat="53.5503980" lon="-9.9455740">
    <ele>59.3</ele>
    <time>2025-12-24T11:48:53Z</time>
   </trkpt>
   <trkpt lat="53.5504540" lon="-9.9455550">
    <ele>59.0</ele>
    <time>2025-12-24T11:48:59Z</time>
   </trkpt>
   <trkpt lat="53.5505210" lon="-9.9455360">
    <ele>58.8</ele>
    <time>2025-12-24T11:49:04Z</time>
   </trkpt>
   <trkpt lat="53.5505580" lon="-9.9454890">
    <ele>57.9</ele>
    <time>2025-12-24T11:49:45Z</time>
   </trkpt>
   <trkpt lat="53.5506060" lon="-9.9454790">
    <ele>57.2</ele>
    <time>2025-12-24T11:49:56Z</time>
   </trkpt>
   <trkpt lat="53.5506500" lon="-9.9453640">
    <ele>58.1</ele>
    <time>2025-12-24T11:50:01Z</time>
   </trkpt>
   <trkpt lat="53.5506220" lon="-9.9452430">
    <ele>58.1</ele>
    <time>2025-12-24T11:50:07Z</time>
   </trkpt>
   <trkpt lat="53.5505770" lon="-9.9451280">
    <ele>57.8</ele>
    <time>2025-12-24T11:50:12Z</time>
   </trkpt>
   <trkpt lat="53.5505260" lon="-9.9450070">
    <ele>57.0</ele>
    <time>2025-12-24T11:50:17Z</time>
   </trkpt>
   <trkpt lat="53.5504920" lon="-9.9448760">
    <ele>55.3</ele>
    <time>2025-12-24T11:50:23Z</time>
   </trkpt>
   <trkpt lat="53.5505370" lon="-9.9448410">
    <ele>54.5</ele>
    <time>2025-12-24T11:50:28Z</time>
   </trkpt>
   <trkpt lat="53.5505940" lon="-9.9449200">
    <ele>52.6</ele>
    <time>2025-12-24T11:50:34Z</time>
   </trkpt>
   <trkpt lat="53.5506310" lon="-9.9449840">
    <ele>51.5</ele>
    <time>2025-12-24T11:50:39Z</time>
   </trkpt>
   <trkpt lat="53.5506840" lon="-9.9450600">
    <ele>50.9</ele>
    <time>2025-12-24T11:50:44Z</time>
   </trkpt>
   <trkpt lat="53.5507310" lon="-9.9451490">
    <ele>49.5</ele>
    <time>2025-12-24T11:50:49Z</time>
   </trkpt>
   <trkpt lat="53.5507700" lon="-9.9452030">
    <ele>48.6</ele>
    <time>2025-12-24T11:50:54Z</time>
   </trkpt>
   <trkpt lat="53.5508180" lon="-9.9452360">
    <ele>47.6</ele>
    <time>2025-12-24T11:50:59Z</time>
   </trkpt>
   <trkpt lat="53.5508800" lon="-9.9452230">
    <ele>48.1</ele>
    <time>2025-12-24T11:51:04Z</time>
   </trkpt>
   <trkpt lat="53.5508910" lon="-9.9451450">
    <ele>47.3</ele>
    <time>2025-12-24T11:51:22Z</time>
   </trkpt>
   <trkpt lat="53.5509460" lon="-9.9451340">
    <ele>49.8</ele>
    <time>2025-12-24T11:51:30Z</time>
   </trkpt>
   <trkpt lat="53.5510260" lon="-9.9450310">
    <ele>51.6</ele>
    <time>2025-12-24T11:51:35Z</time>
   </trkpt>
   <trkpt lat="53.5510910" lon="-9.9449950">
    <ele>52.5</ele>
    <time>2025-12-24T11:51:40Z</time>
   </trkpt>
   <trkpt lat="53.5513680" lon="-9.9450380">
    <ele>46.7</ele>
    <time>2025-12-24T11:54:12Z</time>
   </trkpt>
   <trkpt lat="53.5513220" lon="-9.9449850">
    <ele>46.3</ele>
    <time>2025-12-24T11:54:17Z</time>
   </trkpt>
   <trkpt lat="53.5512790" lon="-9.9450060">
    <ele>45.9</ele>
    <time>2025-12-24T11:54:24Z</time>
   </trkpt>
   <trkpt lat="53.5512350" lon="-9.9449680">
    <ele>46.1</ele>
    <time>2025-12-24T11:54:51Z</time>
   </trkpt>
   <trkpt lat="53.5512370" lon="-9.9448920">
    <ele>45.8</ele>
    <time>2025-12-24T11:55:26Z</time>
   </trkpt>
   <trkpt lat="53.5512040" lon="-9.9448350">
    <ele>45.0</ele>
    <time>2025-12-24T11:56:00Z</time>
   </trkpt>
   <trkpt lat="53.5511710" lon="-9.9448970">
    <ele>45.2</ele>
    <time>2025-12-24T11:56:08Z</time>
   </trkpt>
   <trkpt lat="53.5511970" lon="-9.9447650">
    <ele>45.7</ele>
    <time>2025-12-24T11:56:48Z</time>
   </trkpt>
   <trkpt lat="53.5512460" lon="-9.9447540">
    <ele>45.9</ele>
    <time>2025-12-24T11:56:54Z</time>
   </trkpt>
   <trkpt lat="53.5512860" lon="-9.9447220">
    <ele>46.2</ele>
    <time>2025-12-24T11:57:13Z</time>
   </trkpt>
   <trkpt lat="53.5513220" lon="-9.9446450">
    <ele>46.6</ele>
    <time>2025-12-24T11:57:49Z</time>
   </trkpt>
   <trkpt lat="53.5512620" lon="-9.9446000">
    <ele>46.7</ele>
    <time>2025-12-24T11:58:15Z</time>
   </trkpt>
   <trkpt lat="53.5509050" lon="-9.9452090">
    <ele>45.7</ele>
    <time>2025-12-24T12:00:57Z</time>
   </trkpt>
   <trkpt lat="53.5509370" lon="-9.9451500">
    <ele>46.0</ele>
    <time>2025-12-24T12:01:02Z</time>
   </trkpt>
   <trkpt lat="53.5509810" lon="-9.9450260">
    <ele>46.5</ele>
    <time>2025-12-24T12:01:08Z</time>
   </trkpt>
   <trkpt lat="53.5509630" lon="-9.9449560">
    <ele>48.1</ele>
    <time>2025-12-24T12:01:16Z</time>
   </trkpt>
   <trkpt lat="53.5509060" lon="-9.9451850">
    <ele>48.8</ele>
    <time>2025-12-24T12:01:21Z</time>
   </trkpt>
   <trkpt lat="53.5509270" lon="-9.9452620">
    <ele>49.4</ele>
    <time>2025-12-24T12:01:26Z</time>
   </trkpt>
   <trkpt lat="53.5509980" lon="-9.9452940">
    <ele>49.3</ele>
    <time>2025-12-24T12:01:31Z</time>
   </trkpt>
   <trkpt lat="53.5510490" lon="-9.9452760">
    <ele>48.7</ele>
    <time>2025-12-24T12:01:36Z</time>
   </trkpt>
   <trkpt lat="53.5510920" lon="-9.9452150">
    <ele>47.8</ele>
    <time>2025-12-24T12:01:42Z</time>
   </trkpt>
   <trkpt lat="53.5511520" lon="-9.9451330">
    <ele>47.3</ele>
    <time>2025-12-24T12:01:47Z</time>
   </trkpt>
   <trkpt lat="53.5512080" lon="-9.9450200">
    <ele>49.5</ele>
    <time>2025-12-24T12:01:52Z</time>
   </trkpt>
   <trkpt lat="53.5512260" lon="-9.9449400">
    <ele>50.0</ele>
    <time>2025-12-24T12:01:58Z</time>
   </trkpt>
   <trkpt lat="53.5512730" lon="-9.9449800">
    <ele>47.2</ele>
    <time>2025-12-24T12:02:10Z</time>
   </trkpt>
   <trkpt lat="53.5513670" lon="-9.9449280">
    <ele>48.7</ele>
    <time>2025-12-24T12:02:16Z</time>
   </trkpt>
   <trkpt lat="53.5514360" lon="-9.9448890">
    <ele>49.4</ele>
    <time>2025-12-24T12:02:21Z</time>
   </trkpt>
   <trkpt lat="53.5514900" lon="-9.9448340">
    <ele>49.6</ele>
    <time>2025-12-24T12:02:26Z</time>
   </trkpt>
   <trkpt lat="53.5514870" lon="-9.9449250">
    <ele>50.6</ele>
    <time>2025-12-24T12:02:38Z</time>
   </trkpt>
   <trkpt lat="53.5515170" lon="-9.9450570">
    <ele>50.1</ele>
    <time>2025-12-24T12:02:44Z</time>
   </trkpt>
   <trkpt lat="53.5515280" lon="-9.9449810">
    <ele>49.9</ele>
    <time>2025-12-24T12:02:49Z</time>
   </trkpt>
   <trkpt lat="53.5515730" lon="-9.9449270">
    <ele>44.5</ele>
    <time>2025-12-24T12:03:11Z</time>
   </trkpt>
   <trkpt lat="53.5515320" lon="-9.9449610">
    <ele>46.4</ele>
    <time>2025-12-24T12:04:27Z</time>
   </trkpt>
   <trkpt lat="53.5514650" lon="-9.9449030">
    <ele>47.7</ele>
    <time>2025-12-24T12:04:32Z</time>
   </trkpt>
   <trkpt lat="53.5514550" lon="-9.9447740">
    <ele>49.1</ele>
    <time>2025-12-24T12:04:38Z</time>
   </trkpt>
   <trkpt lat="53.5514710" lon="-9.9446890">
    <ele>50.5</ele>
    <time>2025-12-24T12:04:43Z</time>
   </trkpt>
   <trkpt lat="53.5515210" lon="-9.9445900">
    <ele>51.9</ele>
    <time>2025-12-24T12:04:49Z</time>
   </trkpt>
   <trkpt lat="53.5515670" lon="-9.9445040">
    <ele>53.1</ele>
    <time>2025-12-24T12:04:54Z</time>
   </trkpt>
   <trkpt lat="53.5515970" lon="-9.9444020">
    <ele>53.6</ele>
    <time>2025-12-24T12:04:59Z</time>
   </trkpt>
   <trkpt lat="53.5516190" lon="-9.9442760">
    <ele>53.9</ele>
    <time>2025-12-24T12:05:04Z</time>
   </trkpt>
   <trkpt lat="53.5516080" lon="-9.9441930">
    <ele>54.9</ele>
    <time>2025-12-24T12:05:11Z</time>
   </trkpt>
   <trkpt lat="53.5515940" lon="-9.9440680">
    <ele>55.4</ele>
    <time>2025-12-24T12:05:16Z</time>
   </trkpt>
   <trkpt lat="53.5515910" lon="-9.9439550">
    <ele>56.0</ele>
    <time>2025-12-24T12:05:21Z</time>
   </trkpt>
   <trkpt lat="53.5515850" lon="-9.9438460">
    <ele>56.8</ele>
    <time>2025-12-24T12:05:27Z</time>
   </trkpt>
   <trkpt lat="53.5515810" lon="-9.9437270">
    <ele>57.2</ele>
    <time>2025-12-24T12:05:32Z</time>
   </trkpt>
   <trkpt lat="53.5515620" lon="-9.9436130">
    <ele>57.6</ele>
    <time>2025-12-24T12:05:37Z</time>
   </trkpt>
   <trkpt lat="53.5515420" lon="-9.9435180">
    <ele>58.0</ele>
    <time>2025-12-24T12:05:43Z</time>
   </trkpt>
   <trkpt lat="53.5515050" lon="-9.9434150">
    <ele>58.4</ele>
    <time>2025-12-24T12:05:48Z</time>
   </trkpt>
   <trkpt lat="53.5514760" lon="-9.9433160">
    <ele>58.5</ele>
    <time>2025-12-24T12:05:53Z</time>
   </trkpt>
   <trkpt lat="53.5514410" lon="-9.9432090">
    <ele>58.9</ele>
    <time>2025-12-24T12:05:58Z</time>
   </trkpt>
   <trkpt lat="53.5514080" lon="-9.9431140">
    <ele>59.7</ele>
    <time>2025-12-24T12:06:04Z</time>
   </trkpt>
   <trkpt lat="53.5513700" lon="-9.9430180">
    <ele>60.3</ele>
    <time>2025-12-24T12:06:09Z</time>
   </trkpt>
   <trkpt lat="53.5513400" lon="-9.9429240">
    <ele>60.6</ele>
    <time>2025-12-24T12:06:14Z</time>
   </trkpt>
   <trkpt lat="53.5513070" lon="-9.9428490">
    <ele>60.7</ele>
    <time>2025-12-24T12:06:29Z</time>
   </trkpt>
   <trkpt lat="53.5512750" lon="-9.9427760">
    <ele>59.8</ele>
    <time>2025-12-24T12:07:39Z</time>
   </trkpt>
   <trkpt lat="53.5511980" lon="-9.9426410">
    <ele>59.9</ele>
    <time>2025-12-24T12:07:44Z</time>
   </trkpt>
   <trkpt lat="53.5511480" lon="-9.9425370">
    <ele>59.9</ele>
    <time>2025-12-24T12:07:49Z</time>
   </trkpt>
   <trkpt lat="53.5510910" lon="-9.9424540">
    <ele>60.1</ele>
    <time>2025-12-24T12:07:55Z</time>
   </trkpt>
   <trkpt lat="53.5510390" lon="-9.9423570">
    <ele>60.5</ele>
    <time>2025-12-24T12:08:00Z</time>
   </trkpt>
   <trkpt lat="53.5510110" lon="-9.9422330">
    <ele>61.0</ele>
    <time>2025-12-24T12:08:06Z</time>
   </trkpt>
   <trkpt lat="53.5509940" lon="-9.9421340">
    <ele>62.2</ele>
    <time>2025-12-24T12:08:11Z</time>
   </trkpt>
   <trkpt lat="53.5509940" lon="-9.9420370">
    <ele>63.9</ele>
    <time>2025-12-24T12:08:16Z</time>
   </trkpt>
   <trkpt lat="53.5509960" lon="-9.9419270">
    <ele>65.3</ele>
    <time>2025-12-24T12:08:21Z</time>
   </trkpt>
   <trkpt lat="53.5510060" lon="-9.9418300">
    <ele>66.6</ele>
    <time>2025-12-24T12:08:26Z</time>
   </trkpt>
   <trkpt lat="53.5510400" lon="-9.9417260">
    <ele>67.7</ele>
    <time>2025-12-24T12:08:31Z</time>
   </trkpt>
   <trkpt lat="53.5510710" lon="-9.9416340">
    <ele>68.9</ele>
    <time>2025-12-24T12:08:37Z</time>
   </trkpt>
   <trkpt lat="53.5511160" lon="-9.9415760">
    <ele>69.5</ele>
    <time>2025-12-24T12:08:42Z</time>
   </trkpt>
   <trkpt lat="53.5511460" lon="-9.9414420">
    <ele>69.8</ele>
    <time>2025-12-24T12:08:47Z</time>
   </trkpt>
   <trkpt lat="53.5511590" lon="-9.9413480">
    <ele>70.1</ele>
    <time>2025-12-24T12:08:53Z</time>
   </trkpt>
   <trkpt lat="53.5511770" lon="-9.9412770">
    <ele>70.1</ele>
    <time>2025-12-24T12:09:10Z</time>
   </trkpt>
   <trkpt lat="53.5512060" lon="-9.9410970">
    <ele>70.3</ele>
    <time>2025-12-24T12:09:15Z</time>
   </trkpt>
   <trkpt lat="53.5512030" lon="-9.9409660">
    <ele>70.6</ele>
    <time>2025-12-24T12:09:21Z</time>
   </trkpt>
   <trkpt lat="53.5512080" lon="-9.9408400">
    <ele>71.2</ele>
    <time>2025-12-24T12:09:26Z</time>
   </trkpt>
   <trkpt lat="53.5512140" lon="-9.9407080">
    <ele>71.9</ele>
    <time>2025-12-24T12:09:32Z</time>
   </trkpt>
   <trkpt lat="53.5512370" lon="-9.9405920">
    <ele>72.5</ele>
    <time>2025-12-24T12:09:37Z</time>
   </trkpt>
   <trkpt lat="53.5512360" lon="-9.9404760">
    <ele>72.7</ele>
    <time>2025-12-24T12:09:42Z</time>
   </trkpt>
   <trkpt lat="53.5512350" lon="-9.9403730">
    <ele>73.1</ele>
    <time>2025-12-24T12:09:47Z</time>
   </trkpt>
   <trkpt lat="53.5512380" lon="-9.9402900">
    <ele>74.4</ele>
    <time>2025-12-24T12:09:52Z</time>
   </trkpt>
   <trkpt lat="53.5512480" lon="-9.9401840">
    <ele>75.5</ele>
    <time>2025-12-24T12:09:58Z</time>
   </trkpt>
   <trkpt lat="53.5512610" lon="-9.9400880">
    <ele>76.6</ele>
    <time>2025-12-24T12:10:03Z</time>
   </trkpt>
   <trkpt lat="53.5512720" lon="-9.9399990">
    <ele>77.3</ele>
    <time>2025-12-24T12:10:08Z</time>
   </trkpt>
   <trkpt lat="53.5512790" lon="-9.9399060">
    <ele>78.3</ele>
    <time>2025-12-24T12:10:14Z</time>
   </trkpt>
   <trkpt lat="53.5513030" lon="-9.9398120">
    <ele>79.7</ele>
    <time>2025-12-24T12:10:19Z</time>
   </trkpt>
   <trkpt lat="53.5513200" lon="-9.9397200">
    <ele>81.3</ele>
    <time>2025-12-24T12:10:24Z</time>
   </trkpt>
   <trkpt lat="53.5513280" lon="-9.9396100">
    <ele>82.3</ele>
    <time>2025-12-24T12:10:30Z</time>
   </trkpt>
   <trkpt lat="53.5513410" lon="-9.9395000">
    <ele>82.9</ele>
    <time>2025-12-24T12:10:35Z</time>
   </trkpt>
   <trkpt lat="53.5513560" lon="-9.9393820">
    <ele>83.4</ele>
    <time>2025-12-24T12:10:40Z</time>
   </trkpt>
   <trkpt lat="53.5513880" lon="-9.9392480">
    <ele>83.9</ele>
    <time>2025-12-24T12:10:46Z</time>
   </trkpt>
   <trkpt lat="53.5513980" lon="-9.9391390">
    <ele>84.1</ele>
    <time>2025-12-24T12:10:51Z</time>
   </trkpt>
   <trkpt lat="53.5514190" lon="-9.9390540">
    <ele>84.1</ele>
    <time>2025-12-24T12:10:56Z</time>
   </trkpt>
   <trkpt lat="53.5514560" lon="-9.9389980">
    <ele>84.6</ele>
    <time>2025-12-24T12:11:02Z</time>
   </trkpt>
   <trkpt lat="53.5515240" lon="-9.9389700">
    <ele>85.3</ele>
    <time>2025-12-24T12:11:08Z</time>
   </trkpt>
   <trkpt lat="53.5515840" lon="-9.9389160">
    <ele>85.6</ele>
    <time>2025-12-24T12:11:13Z</time>
   </trkpt>
   <trkpt lat="53.5516320" lon="-9.9388450">
    <ele>85.3</ele>
    <time>2025-12-24T12:11:18Z</time>
   </trkpt>
   <trkpt lat="53.5516810" lon="-9.9387550">
    <ele>85.5</ele>
    <time>2025-12-24T12:11:24Z</time>
   </trkpt>
   <trkpt lat="53.5517270" lon="-9.9387210">
    <ele>86.4</ele>
    <time>2025-12-24T12:11:29Z</time>
   </trkpt>
   <trkpt lat="53.5517620" lon="-9.9386680">
    <ele>87.6</ele>
    <time>2025-12-24T12:11:35Z</time>
   </trkpt>
   <trkpt lat="53.5517770" lon="-9.9385940">
    <ele>87.4</ele>
    <time>2025-12-24T12:11:40Z</time>
   </trkpt>
   <trkpt lat="53.5517270" lon="-9.9386090">
    <ele>85.2</ele>
    <time>2025-12-24T12:11:51Z</time>
   </trkpt>
   <trkpt lat="53.5516350" lon="-9.9385920">
    <ele>86.7</ele>
    <time>2025-12-24T12:11:56Z</time>
   </trkpt>
   <trkpt lat="53.5515640" lon="-9.9386360">
    <ele>88.4</ele>
    <time>2025-12-24T12:12:01Z</time>
   </trkpt>
   <trkpt lat="53.5514940" lon="-9.9387190">
    <ele>88.3</ele>
    <time>2025-12-24T12:12:06Z</time>
   </trkpt>
   <trkpt lat="53.5514270" lon="-9.9387390">
    <ele>88.2</ele>
    <time>2025-12-24T12:12:12Z</time>
   </trkpt>
   <trkpt lat="53.5513530" lon="-9.9387040">
    <ele>88.5</ele>
    <time>2025-12-24T12:12:17Z</time>
   </trkpt>
   <trkpt lat="53.5512740" lon="-9.9386550">
    <ele>89.5</ele>
    <time>2025-12-24T12:12:23Z</time>
   </trkpt>
   <trkpt lat="53.5511960" lon="-9.9386200">
    <ele>89.8</ele>
    <time>2025-12-24T12:12:28Z</time>
   </trkpt>
   <trkpt lat="53.5511310" lon="-9.9385740">
    <ele>90.4</ele>
    <time>2025-12-24T12:12:34Z</time>
   </trkpt>
   <trkpt lat="53.5510610" lon="-9.9385250">
    <ele>91.1</ele>
    <time>2025-12-24T12:12:40Z</time>
   </trkpt>
   <trkpt lat="53.5510060" lon="-9.9384620">
    <ele>92.0</ele>
    <time>2025-12-24T12:12:45Z</time>
   </trkpt>
   <trkpt lat="53.5509480" lon="-9.9384200">
    <ele>92.8</ele>
    <time>2025-12-24T12:12:50Z</time>
   </trkpt>
   <trkpt lat="53.5508960" lon="-9.9383730">
    <ele>92.7</ele>
    <time>2025-12-24T12:12:55Z</time>
   </trkpt>
   <trkpt lat="53.5508460" lon="-9.9383190">
    <ele>93.2</ele>
    <time>2025-12-24T12:13:00Z</time>
   </trkpt>
   <trkpt lat="53.5507860" lon="-9.9382710">
    <ele>94.0</ele>
    <time>2025-12-24T12:13:05Z</time>
   </trkpt>
   <trkpt lat="53.5507350" lon="-9.9382440">
    <ele>95.3</ele>
    <time>2025-12-24T12:13:10Z</time>
   </trkpt>
   <trkpt lat="53.5506730" lon="-9.9382440">
    <ele>96.1</ele>
    <time>2025-12-24T12:13:15Z</time>
   </trkpt>
   <trkpt lat="53.5506310" lon="-9.9381520">
    <ele>96.4</ele>
    <time>2025-12-24T12:13:20Z</time>
   </trkpt>
   <trkpt lat="53.5505860" lon="-9.9381000">
    <ele>97.2</ele>
    <time>2025-12-24T12:13:25Z</time>
   </trkpt>
   <trkpt lat="53.5505230" lon="-9.9380840">
    <ele>98.3</ele>
    <time>2025-12-24T12:13:31Z</time>
   </trkpt>
   <trkpt lat="53.5504740" lon="-9.9380270">
    <ele>99.3</ele>
    <time>2025-12-24T12:13:36Z</time>
   </trkpt>
   <trkpt lat="53.5504250" lon="-9.9379580">
    <ele>99.5</ele>
    <time>2025-12-24T12:13:41Z</time>
   </trkpt>
   <trkpt lat="53.5503680" lon="-9.9378910">
    <ele>99.8</ele>
    <time>2025-12-24T12:13:46Z</time>
   </trkpt>
   <trkpt lat="53.5503080" lon="-9.9378150">
    <ele>100.8</ele>
    <time>2025-12-24T12:13:51Z</time>
   </trkpt>
   <trkpt lat="53.5502490" lon="-9.9377540">
    <ele>102.2</ele>
    <time>2025-12-24T12:13:57Z</time>
   </trkpt>
   <trkpt lat="53.5501970" lon="-9.9376690">
    <ele>102.6</ele>
    <time>2025-12-24T12:14:02Z</time>
   </trkpt>
   <trkpt lat="53.5501410" lon="-9.9376140">
    <ele>102.7</ele>
    <time>2025-12-24T12:14:07Z</time>
   </trkpt>
   <trkpt lat="53.5500680" lon="-9.9376050">
    <ele>103.2</ele>
    <time>2025-12-24T12:14:12Z</time>
   </trkpt>
   <trkpt lat="53.5499980" lon="-9.9376010">
    <ele>104.1</ele>
    <time>2025-12-24T12:14:17Z</time>
   </trkpt>
   <trkpt lat="53.5499700" lon="-9.9375300">
    <ele>104.3</ele>
    <time>2025-12-24T12:15:00Z</time>
   </trkpt>
   <trkpt lat="53.5499500" lon="-9.9374360">
    <ele>105.2</ele>
    <time>2025-12-24T12:15:06Z</time>
   </trkpt>
   <trkpt lat="53.5498580" lon="-9.9374300">
    <ele>105.9</ele>
    <time>2025-12-24T12:15:11Z</time>
   </trkpt>
   <trkpt lat="53.5497840" lon="-9.9374700">
    <ele>106.1</ele>
    <time>2025-12-24T12:15:16Z</time>
   </trkpt>
   <trkpt lat="53.5497200" lon="-9.9375030">
    <ele>105.9</ele>
    <time>2025-12-24T12:15:21Z</time>
   </trkpt>
   <trkpt lat="53.5496680" lon="-9.9375560">
    <ele>106.8</ele>
    <time>2025-12-24T12:15:27Z</time>
   </trkpt>
   <trkpt lat="53.5496110" lon="-9.9375440">
    <ele>107.8</ele>
    <time>2025-12-24T12:15:32Z</time>
   </trkpt>
   <trkpt lat="53.5495700" lon="-9.9375010">
    <ele>108.9</ele>
    <time>2025-12-24T12:15:37Z</time>
   </trkpt>
   <trkpt lat="53.5495300" lon="-9.9374480">
    <ele>110.0</ele>
    <time>2025-12-24T12:15:43Z</time>
   </trkpt>
   <trkpt lat="53.5494830" lon="-9.9374100">
    <ele>111.2</ele>
    <time>2025-12-24T12:15:48Z</time>
   </trkpt>
   <trkpt lat="53.5494530" lon="-9.9374800">
    <ele>112.5</ele>
    <time>2025-12-24T12:15:54Z</time>
   </trkpt>
   <trkpt lat="53.5494240" lon="-9.9375470">
    <ele>114.0</ele>
    <time>2025-12-24T12:16:00Z</time>
   </trkpt>
   <trkpt lat="53.5493850" lon="-9.9375100">
    <ele>115.9</ele>
    <time>2025-12-24T12:16:08Z</time>
   </trkpt>
   <trkpt lat="53.5493490" lon="-9.9374560">
    <ele>118.1</ele>
    <time>2025-12-24T12:16:19Z</time>
   </trkpt>
   <trkpt lat="53.5493180" lon="-9.9373710">
    <ele>119.6</ele>
    <time>2025-12-24T12:16:25Z</time>
   </trkpt>
   <trkpt lat="53.5492980" lon="-9.9373030">
    <ele>121.7</ele>
    <time>2025-12-24T12:16:49Z</time>
   </trkpt>
   <trkpt lat="53.5492670" lon="-9.9372450">
    <ele>122.6</ele>
    <time>2025-12-24T12:16:56Z</time>
   </trkpt>
   <trkpt lat="53.5492230" lon="-9.9372130">
    <ele>123.3</ele>
    <time>2025-12-24T12:17:18Z</time>
   </trkpt>
   <trkpt lat="53.5491770" lon="-9.9371610">
    <ele>124.6</ele>
    <time>2025-12-24T12:17:24Z</time>
   </trkpt>
   <trkpt lat="53.5491510" lon="-9.9370980">
    <ele>126.2</ele>
    <time>2025-12-24T12:17:32Z</time>
   </trkpt>
   <trkpt lat="53.5491160" lon="-9.9370470">
    <ele>127.3</ele>
    <time>2025-12-24T12:17:39Z</time>
   </trkpt>
   <trkpt lat="53.5490700" lon="-9.9370210">
    <ele>128.6</ele>
    <time>2025-12-24T12:17:47Z</time>
   </trkpt>
   <trkpt lat="53.5490290" lon="-9.9370620">
    <ele>131.0</ele>
    <time>2025-12-24T12:17:57Z</time>
   </trkpt>
   <trkpt lat="53.5489860" lon="-9.9370380">
    <ele>132.3</ele>
    <time>2025-12-24T12:18:03Z</time>
   </trkpt>
   <trkpt lat="53.5489660" lon="-9.9369690">
    <ele>133.2</ele>
    <time>2025-12-24T12:18:12Z</time>
   </trkpt>
   <trkpt lat="53.5489250" lon="-9.9368970">
    <ele>134.3</ele>
    <time>2025-12-24T12:18:17Z</time>
   </trkpt>
   <trkpt lat="53.5489010" lon="-9.9368110">
    <ele>135.5</ele>
    <time>2025-12-24T12:18:23Z</time>
   </trkpt>
   <trkpt lat="53.5488400" lon="-9.9368050">
    <ele>135.9</ele>
    <time>2025-12-24T12:18:28Z</time>
   </trkpt>
   <trkpt lat="53.5487920" lon="-9.9367910">
    <ele>136.1</ele>
    <time>2025-12-24T12:18:34Z</time>
   </trkpt>
   <trkpt lat="53.5487420" lon="-9.9367980">
    <ele>136.0</ele>
    <time>2025-12-24T12:18:50Z</time>
   </trkpt>
   <trkpt lat="53.5486710" lon="-9.9367400">
    <ele>137.0</ele>
    <time>2025-12-24T12:18:55Z</time>
   </trkpt>
   <trkpt lat="53.5485910" lon="-9.9367360">
    <ele>137.1</ele>
    <time>2025-12-24T12:19:01Z</time>
   </trkpt>
   <trkpt lat="53.5485250" lon="-9.9367260">
    <ele>137.5</ele>
    <time>2025-12-24T12:19:06Z</time>
   </trkpt>
   <trkpt lat="53.5484670" lon="-9.9367060">
    <ele>138.3</ele>
    <time>2025-12-24T12:19:11Z</time>
   </trkpt>
   <trkpt lat="53.5484190" lon="-9.9366600">
    <ele>139.2</ele>
    <time>2025-12-24T12:19:17Z</time>
   </trkpt>
   <trkpt lat="53.5483810" lon="-9.9366030">
    <ele>140.2</ele>
    <time>2025-12-24T12:19:22Z</time>
   </trkpt>
   <trkpt lat="53.5483440" lon="-9.9365160">
    <ele>141.2</ele>
    <time>2025-12-24T12:19:27Z</time>
   </trkpt>
   <trkpt lat="53.5483150" lon="-9.9364240">
    <ele>142.1</ele>
    <time>2025-12-24T12:19:33Z</time>
   </trkpt>
   <trkpt lat="53.5482950" lon="-9.9363430">
    <ele>143.3</ele>
    <time>2025-12-24T12:19:39Z</time>
   </trkpt>
   <trkpt lat="53.5482670" lon="-9.9362810">
    <ele>144.3</ele>
    <time>2025-12-24T12:19:45Z</time>
   </trkpt>
   <trkpt lat="53.5482250" lon="-9.9362410">
    <ele>144.9</ele>
    <time>2025-12-24T12:19:52Z</time>
   </trkpt>
   <trkpt lat="53.5481860" lon="-9.9361900">
    <ele>146.4</ele>
    <time>2025-12-24T12:20:04Z</time>
   </trkpt>
   <trkpt lat="53.5481610" lon="-9.9361200">
    <ele>147.5</ele>
    <time>2025-12-24T12:20:10Z</time>
   </trkpt>
   <trkpt lat="53.5481440" lon="-9.9360370">
    <ele>148.0</ele>
    <time>2025-12-24T12:20:16Z</time>
   </trkpt>
   <trkpt lat="53.5481250" lon="-9.9359640">
    <ele>148.3</ele>
    <time>2025-12-24T12:20:58Z</time>
   </trkpt>
   <trkpt lat="53.5480780" lon="-9.9359690">
    <ele>149.4</ele>
    <time>2025-12-24T12:21:06Z</time>
   </trkpt>
   <trkpt lat="53.5480380" lon="-9.9359250">
    <ele>150.4</ele>
    <time>2025-12-24T12:21:13Z</time>
   </trkpt>
   <trkpt lat="53.5479930" lon="-9.9358750">
    <ele>150.9</ele>
    <time>2025-12-24T12:21:18Z</time>
   </trkpt>
   <trkpt lat="53.5479630" lon="-9.9357940">
    <ele>150.9</ele>
    <time>2025-12-24T12:21:23Z</time>
   </trkpt>
   <trkpt lat="53.5479200" lon="-9.9357090">
    <ele>151.0</ele>
    <time>2025-12-24T12:21:29Z</time>
   </trkpt>
   <trkpt lat="53.5478690" lon="-9.9356850">
    <ele>149.7</ele>
    <time>2025-12-24T12:21:48Z</time>
   </trkpt>
   <trkpt lat="53.5477990" lon="-9.9355480">
    <ele>151.2</ele>
    <time>2025-12-24T12:21:54Z</time>
   </trkpt>
   <trkpt lat="53.5477240" lon="-9.9354960">
    <ele>151.8</ele>
    <time>2025-12-24T12:21:59Z</time>
   </trkpt>
   <trkpt lat="53.5476560" lon="-9.9354380">
    <ele>151.8</ele>
    <time>2025-12-24T12:22:05Z</time>
   </trkpt>
   <trkpt lat="53.5475820" lon="-9.9354040">
    <ele>152.2</ele>
    <time>2025-12-24T12:22:10Z</time>
   </trkpt>
   <trkpt lat="53.5475070" lon="-9.9353400">
    <ele>152.6</ele>
    <time>2025-12-24T12:22:16Z</time>
   </trkpt>
   <trkpt lat="53.5474540" lon="-9.9352820">
    <ele>153.1</ele>
    <time>2025-12-24T12:22:21Z</time>
   </trkpt>
   <trkpt lat="53.5473910" lon="-9.9352030">
    <ele>153.3</ele>
    <time>2025-12-24T12:22:26Z</time>
   </trkpt>
   <trkpt lat="53.5473170" lon="-9.9351400">
    <ele>153.4</ele>
    <time>2025-12-24T12:22:32Z</time>
   </trkpt>
   <trkpt lat="53.5472460" lon="-9.9350680">
    <ele>153.4</ele>
    <time>2025-12-24T12:22:37Z</time>
   </trkpt>
   <trkpt lat="53.5471760" lon="-9.9349830">
    <ele>153.5</ele>
    <time>2025-12-24T12:22:43Z</time>
   </trkpt>
   <trkpt lat="53.5471030" lon="-9.9349310">
    <ele>153.9</ele>
    <time>2025-12-24T12:22:48Z</time>
   </trkpt>
   <trkpt lat="53.5470350" lon="-9.9348860">
    <ele>154.2</ele>
    <time>2025-12-24T12:22:53Z</time>
   </trkpt>
   <trkpt lat="53.5469700" lon="-9.9348560">
    <ele>154.3</ele>
    <time>2025-12-24T12:22:59Z</time>
   </trkpt>
   <trkpt lat="53.5469140" lon="-9.9348110">
    <ele>154.3</ele>
    <time>2025-12-24T12:23:04Z</time>
   </trkpt>
   <trkpt lat="53.5468630" lon="-9.9347700">
    <ele>154.3</ele>
    <time>2025-12-24T12:23:10Z</time>
   </trkpt>
   <trkpt lat="53.5468080" lon="-9.9347180">
    <ele>154.8</ele>
    <time>2025-12-24T12:23:15Z</time>
   </trkpt>
   <trkpt lat="53.5467650" lon="-9.9346620">
    <ele>155.4</ele>
    <time>2025-12-24T12:23:20Z</time>
   </trkpt>
   <trkpt lat="53.5467110" lon="-9.9346230">
    <ele>155.9</ele>
    <time>2025-12-24T12:23:25Z</time>
   </trkpt>
   <trkpt lat="53.5466570" lon="-9.9345800">
    <ele>156.2</ele>
    <time>2025-12-24T12:23:30Z</time>
   </trkpt>
   <trkpt lat="53.5466040" lon="-9.9345290">
    <ele>156.5</ele>
    <time>2025-12-24T12:23:36Z</time>
   </trkpt>
   <trkpt lat="53.5465520" lon="-9.9344600">
    <ele>156.6</ele>
    <time>2025-12-24T12:23:41Z</time>
   </trkpt>
   <trkpt lat="53.5464950" lon="-9.9344040">
    <ele>156.4</ele>
    <time>2025-12-24T12:23:46Z</time>
   </trkpt>
   <trkpt lat="53.5464450" lon="-9.9343280">
    <ele>156.4</ele>
    <time>2025-12-24T12:23:51Z</time>
   </trkpt>
   <trkpt lat="53.5463920" lon="-9.9342860">
    <ele>156.9</ele>
    <time>2025-12-24T12:23:57Z</time>
   </trkpt>
   <trkpt lat="53.5463390" lon="-9.9342830">
    <ele>157.4</ele>
    <time>2025-12-24T12:24:02Z</time>
   </trkpt>
   <trkpt lat="53.5462960" lon="-9.9342480">
    <ele>157.4</ele>
    <time>2025-12-24T12:24:07Z</time>
   </trkpt>
   <trkpt lat="53.5462690" lon="-9.9341760">
    <ele>156.8</ele>
    <time>2025-12-24T12:24:33Z</time>
   </trkpt>
   <trkpt lat="53.5462850" lon="-9.9340960">
    <ele>159.8</ele>
    <time>2025-12-24T12:25:10Z</time>
   </trkpt>
   <trkpt lat="53.5463120" lon="-9.9339630">
    <ele>160.1</ele>
    <time>2025-12-24T12:25:15Z</time>
   </trkpt>
   <trkpt lat="53.5463190" lon="-9.9338780">
    <ele>160.3</ele>
    <time>2025-12-24T12:25:20Z</time>
   </trkpt>
   <trkpt lat="53.5463260" lon="-9.9337780">
    <ele>160.5</ele>
    <time>2025-12-24T12:25:26Z</time>
   </trkpt>
   <trkpt lat="53.5463420" lon="-9.9336660">
    <ele>160.3</ele>
    <time>2025-12-24T12:25:31Z</time>
   </trkpt>
   <trkpt lat="53.5463370" lon="-9.9335560">
    <ele>160.4</ele>
    <time>2025-12-24T12:25:36Z</time>
   </trkpt>
   <trkpt lat="53.5463250" lon="-9.9334500">
    <ele>160.1</ele>
    <time>2025-12-24T12:25:42Z</time>
   </trkpt>
   <trkpt lat="53.5463480" lon="-9.9333510">
    <ele>159.6</ele>
    <time>2025-12-24T12:25:47Z</time>
   </trkpt>
   <trkpt lat="53.5463530" lon="-9.9332490">
    <ele>159.5</ele>
    <time>2025-12-24T12:25:52Z</time>
   </trkpt>
   <trkpt lat="53.5463450" lon="-9.9331310">
    <ele>158.6</ele>
    <time>2025-12-24T12:25:58Z</time>
   </trkpt>
   <trkpt lat="53.5463530" lon="-9.9330090">
    <ele>158.0</ele>
    <time>2025-12-24T12:26:03Z</time>
   </trkpt>
   <trkpt lat="53.5463650" lon="-9.9329030">
    <ele>157.8</ele>
    <time>2025-12-24T12:26:08Z</time>
   </trkpt>
   <trkpt lat="53.5463870" lon="-9.9328110">
    <ele>156.9</ele>
    <time>2025-12-24T12:26:14Z</time>
   </trkpt>
   <trkpt lat="53.5463920" lon="-9.9327060">
    <ele>156.2</ele>
    <time>2025-12-24T12:26:19Z</time>
   </trkpt>
   <trkpt lat="53.5463960" lon="-9.9325830">
    <ele>156.3</ele>
    <time>2025-12-24T12:26:24Z</time>
   </trkpt>
   <trkpt lat="53.5463910" lon="-9.9324700">
    <ele>156.5</ele>
    <time>2025-12-24T12:26:30Z</time>
   </trkpt>
   <trkpt lat="53.5463950" lon="-9.9323720">
    <ele>157.0</ele>
    <time>2025-12-24T12:26:35Z</time>
   </trkpt>
   <trkpt lat="53.5463960" lon="-9.9322670">
    <ele>157.0</ele>
    <time>2025-12-24T12:26:41Z</time>
   </trkpt>
   <trkpt lat="53.5463800" lon="-9.9321780">
    <ele>156.5</ele>
    <time>2025-12-24T12:26:46Z</time>
   </trkpt>
   <trkpt lat="53.5463760" lon="-9.9320630">
    <ele>156.8</ele>
    <time>2025-12-24T12:26:51Z</time>
   </trkpt>
   <trkpt lat="53.5463870" lon="-9.9319820">
    <ele>157.4</ele>
    <time>2025-12-24T12:26:56Z</time>
   </trkpt>
   <trkpt lat="53.5463900" lon="-9.9318960">
    <ele>157.9</ele>
    <time>2025-12-24T12:27:03Z</time>
   </trkpt>
   <trkpt lat="53.5463920" lon="-9.9318090">
    <ele>157.5</ele>
    <time>2025-12-24T12:27:08Z</time>
   </trkpt>
   <trkpt lat="53.5463840" lon="-9.9317280">
    <ele>157.1</ele>
    <time>2025-12-24T12:27:14Z</time>
   </trkpt>
   <trkpt lat="53.5464040" lon="-9.9316580">
    <ele>158.3</ele>
    <time>2025-12-24T12:27:24Z</time>
   </trkpt>
   <trkpt lat="53.5464510" lon="-9.9316410">
    <ele>159.5</ele>
    <time>2025-12-24T12:27:32Z</time>
   </trkpt>
   <trkpt lat="53.5464530" lon="-9.9315580">
    <ele>159.9</ele>
    <time>2025-12-24T12:27:37Z</time>
   </trkpt>
   <trkpt lat="53.5464640" lon="-9.9314820">
    <ele>160.2</ele>
    <time>2025-12-24T12:27:45Z</time>
   </trkpt>
   <trkpt lat="53.5464750" lon="-9.9314010">
    <ele>161.9</ele>
    <time>2025-12-24T12:27:55Z</time>
   </trkpt>
   <trkpt lat="53.5464820" lon="-9.9313260">
    <ele>162.7</ele>
    <time>2025-12-24T12:28:02Z</time>
   </trkpt>
   <trkpt lat="53.5464920" lon="-9.9312400">
    <ele>163.6</ele>
    <time>2025-12-24T12:28:12Z</time>
   </trkpt>
   <trkpt lat="53.5464960" lon="-9.9311510">
    <ele>164.9</ele>
    <time>2025-12-24T12:28:22Z</time>
   </trkpt>
   <trkpt lat="53.5464930" lon="-9.9310700">
    <ele>166.7</ele>
    <time>2025-12-24T12:28:33Z</time>
   </trkpt>
   <trkpt lat="53.5465010" lon="-9.9309880">
    <ele>167.5</ele>
    <time>2025-12-24T12:28:47Z</time>
   </trkpt>
   <trkpt lat="53.5465010" lon="-9.9308980">
    <ele>168.1</ele>
    <time>2025-12-24T12:28:52Z</time>
   </trkpt>
   <trkpt lat="53.5465120" lon="-9.9308200">
    <ele>169.9</ele>
    <time>2025-12-24T12:29:01Z</time>
   </trkpt>
   <trkpt lat="53.5465250" lon="-9.9307430">
    <ele>170.5</ele>
    <time>2025-12-24T12:29:08Z</time>
   </trkpt>
   <trkpt lat="53.5465120" lon="-9.9306630">
    <ele>170.9</ele>
    <time>2025-12-24T12:29:15Z</time>
   </trkpt>
   <trkpt lat="53.5465030" lon="-9.9305870">
    <ele>171.3</ele>
    <time>2025-12-24T12:29:22Z</time>
   </trkpt>
   <trkpt lat="53.5465250" lon="-9.9305150">
    <ele>172.9</ele>
    <time>2025-12-24T12:29:31Z</time>
   </trkpt>
   <trkpt lat="53.5465680" lon="-9.9304540">
    <ele>173.2</ele>
    <time>2025-12-24T12:29:37Z</time>
   </trkpt>
   <trkpt lat="53.5466060" lon="-9.9304080">
    <ele>174.3</ele>
    <time>2025-12-24T12:29:45Z</time>
   </trkpt>
   <trkpt lat="53.5466170" lon="-9.9303240">
    <ele>175.2</ele>
    <time>2025-12-24T12:29:52Z</time>
   </trkpt>
   <trkpt lat="53.5466040" lon="-9.9302460">
    <ele>176.1</ele>
    <time>2025-12-24T12:29:57Z</time>
   </trkpt>
   <trkpt lat="53.5465960" lon="-9.9301690">
    <ele>177.0</ele>
    <time>2025-12-24T12:30:05Z</time>
   </trkpt>
   <trkpt lat="53.5465940" lon="-9.9300830">
    <ele>177.8</ele>
    <time>2025-12-24T12:30:25Z</time>
   </trkpt>
   <trkpt lat="53.5466090" lon="-9.9299900">
    <ele>178.4</ele>
    <time>2025-12-24T12:30:31Z</time>
   </trkpt>
   <trkpt lat="53.5466370" lon="-9.9299200">
    <ele>179.4</ele>
    <time>2025-12-24T12:30:37Z</time>
   </trkpt>
   <trkpt lat="53.5466760" lon="-9.9298550">
    <ele>180.3</ele>
    <time>2025-12-24T12:30:42Z</time>
   </trkpt>
   <trkpt lat="53.5467010" lon="-9.9297870">
    <ele>180.8</ele>
    <time>2025-12-24T12:30:48Z</time>
   </trkpt>
   <trkpt lat="53.5467170" lon="-9.9297110">
    <ele>181.3</ele>
    <time>2025-12-24T12:30:53Z</time>
   </trkpt>
   <trkpt lat="53.5467370" lon="-9.9296360">
    <ele>182.0</ele>
    <time>2025-12-24T12:31:00Z</time>
   </trkpt>
   <trkpt lat="53.5467670" lon="-9.9295670">
    <ele>183.3</ele>
    <time>2025-12-24T12:31:08Z</time>
   </trkpt>
   <trkpt lat="53.5468090" lon="-9.9295230">
    <ele>184.1</ele>
    <time>2025-12-24T12:31:14Z</time>
   </trkpt>
   <trkpt lat="53.5468410" lon="-9.9294690">
    <ele>184.3</ele>
    <time>2025-12-24T12:31:19Z</time>
   </trkpt>
   <trkpt lat="53.5468610" lon="-9.9294000">
    <ele>184.4</ele>
    <time>2025-12-24T12:31:25Z</time>
   </trkpt>
   <trkpt lat="53.5468930" lon="-9.9293450">
    <ele>185.2</ele>
    <time>2025-12-24T12:31:34Z</time>
   </trkpt>
   <trkpt lat="53.5469240" lon="-9.9292830">
    <ele>186.0</ele>
    <time>2025-12-24T12:31:39Z</time>
   </trkpt>
   <trkpt lat="53.5469630" lon="-9.9292290">
    <ele>186.5</ele>
    <time>2025-12-24T12:31:45Z</time>
   </trkpt>
   <trkpt lat="53.5470010" lon="-9.9291700">
    <ele>187.1</ele>
    <time>2025-12-24T12:31:58Z</time>
   </trkpt>
   <trkpt lat="53.5470310" lon="-9.9291020">
    <ele>187.7</ele>
    <time>2025-12-24T12:32:04Z</time>
   </trkpt>
   <trkpt lat="53.5470440" lon="-9.9290260">
    <ele>186.5</ele>
    <time>2025-12-24T12:32:11Z</time>
   </trkpt>
   <trkpt lat="53.5470680" lon="-9.9289610">
    <ele>191.9</ele>
    <time>2025-12-24T12:32:28Z</time>
   </trkpt>
   <trkpt lat="53.5471130" lon="-9.9289350">
    <ele>193.2</ele>
    <time>2025-12-24T12:32:33Z</time>
   </trkpt>
   <trkpt lat="53.5471540" lon="-9.9288970">
    <ele>190.3</ele>
    <time>2025-12-24T12:32:39Z</time>
   </trkpt>
   <trkpt lat="53.5472040" lon="-9.9288700">
    <ele>188.4</ele>
    <time>2025-12-24T12:32:44Z</time>
   </trkpt>
   <trkpt lat="53.5472510" lon="-9.9288790">
    <ele>187.8</ele>
    <time>2025-12-24T12:33:01Z</time>
   </trkpt>
   <trkpt lat="53.5473050" lon="-9.9288330">
    <ele>189.2</ele>
    <time>2025-12-24T12:33:06Z</time>
   </trkpt>
   <trkpt lat="53.5473330" lon="-9.9287680">
    <ele>190.2</ele>
    <time>2025-12-24T12:33:12Z</time>
   </trkpt>
   <trkpt lat="53.5473780" lon="-9.9287480">
    <ele>191.4</ele>
    <time>2025-12-24T12:33:20Z</time>
   </trkpt>
   <trkpt lat="53.5474050" lon="-9.9286860">
    <ele>192.1</ele>
    <time>2025-12-24T12:33:26Z</time>
   </trkpt>
   <trkpt lat="53.5474480" lon="-9.9286450">
    <ele>192.8</ele>
    <time>2025-12-24T12:33:32Z</time>
   </trkpt>
   <trkpt lat="53.5474890" lon="-9.9286100">
    <ele>193.3</ele>
    <time>2025-12-24T12:33:39Z</time>
   </trkpt>
   <trkpt lat="53.5475290" lon="-9.9285670">
    <ele>194.1</ele>
    <time>2025-12-24T12:33:47Z</time>
   </trkpt>
   <trkpt lat="53.5475680" lon="-9.9285240">
    <ele>195.1</ele>
    <time>2025-12-24T12:33:55Z</time>
   </trkpt>
   <trkpt lat="53.5476100" lon="-9.9284930">
    <ele>196.0</ele>
    <time>2025-12-24T12:34:02Z</time>
   </trkpt>
   <trkpt lat="53.5476520" lon="-9.9284380">
    <ele>197.0</ele>
    <time>2025-12-24T12:34:12Z</time>
   </trkpt>
   <trkpt lat="53.5477010" lon="-9.9284060">
    <ele>197.7</ele>
    <time>2025-12-24T12:34:17Z</time>
   </trkpt>
   <trkpt lat="53.5477370" lon="-9.9283560">
    <ele>198.4</ele>
    <time>2025-12-24T12:34:23Z</time>
   </trkpt>
   <trkpt lat="53.5477690" lon="-9.9282990">
    <ele>199.3</ele>
    <time>2025-12-24T12:34:28Z</time>
   </trkpt>
   <trkpt lat="53.5478070" lon="-9.9282540">
    <ele>200.1</ele>
    <time>2025-12-24T12:34:35Z</time>
   </trkpt>
   <trkpt lat="53.5478330" lon="-9.9281930">
    <ele>200.5</ele>
    <time>2025-12-24T12:34:41Z</time>
   </trkpt>
   <trkpt lat="53.5478610" lon="-9.9281300">
    <ele>200.6</ele>
    <time>2025-12-24T12:34:46Z</time>
   </trkpt>
   <trkpt lat="53.5478860" lon="-9.9280640">
    <ele>201.4</ele>
    <time>2025-12-24T12:34:53Z</time>
   </trkpt>
   <trkpt lat="53.5479300" lon="-9.9280460">
    <ele>202.9</ele>
    <time>2025-12-24T12:35:03Z</time>
   </trkpt>
   <trkpt lat="53.5479680" lon="-9.9279910">
    <ele>203.9</ele>
    <time>2025-12-24T12:35:11Z</time>
   </trkpt>
   <trkpt lat="53.5480070" lon="-9.9279360">
    <ele>204.6</ele>
    <time>2025-12-24T12:35:18Z</time>
   </trkpt>
   <trkpt lat="53.5480460" lon="-9.9278880">
    <ele>206.2</ele>
    <time>2025-12-24T12:35:27Z</time>
   </trkpt>
   <trkpt lat="53.5480870" lon="-9.9278460">
    <ele>207.6</ele>
    <time>2025-12-24T12:35:36Z</time>
   </trkpt>
   <trkpt lat="53.5481210" lon="-9.9277920">
    <ele>208.8</ele>
    <time>2025-12-24T12:35:45Z</time>
   </trkpt>
   <trkpt lat="53.5481660" lon="-9.9277630">
    <ele>210.0</ele>
    <time>2025-12-24T12:35:52Z</time>
   </trkpt>
   <trkpt lat="53.5482170" lon="-9.9277570">
    <ele>210.8</ele>
    <time>2025-12-24T12:35:58Z</time>
   </trkpt>
   <trkpt lat="53.5482710" lon="-9.9277360">
    <ele>211.0</ele>
    <time>2025-12-24T12:36:03Z</time>
   </trkpt>
   <trkpt lat="53.5483310" lon="-9.9277110">
    <ele>211.0</ele>
    <time>2025-12-24T12:36:08Z</time>
   </trkpt>
   <trkpt lat="53.5484000" lon="-9.9276920">
    <ele>211.2</ele>
    <time>2025-12-24T12:36:14Z</time>
   </trkpt>
   <trkpt lat="53.5484550" lon="-9.9276630">
    <ele>210.9</ele>
    <time>2025-12-24T12:36:19Z</time>
   </trkpt>
   <trkpt lat="53.5485020" lon="-9.9276720">
    <ele>210.4</ele>
    <time>2025-12-24T12:36:25Z</time>
   </trkpt>
   <trkpt lat="53.5485480" lon="-9.9276550">
    <ele>209.8</ele>
    <time>2025-12-24T12:36:30Z</time>
   </trkpt>
   <trkpt lat="53.5485970" lon="-9.9276300">
    <ele>208.8</ele>
    <time>2025-12-24T12:36:37Z</time>
   </trkpt>
   <trkpt lat="53.5486440" lon="-9.9275810">
    <ele>208.7</ele>
    <time>2025-12-24T12:36:42Z</time>
   </trkpt>
   <trkpt lat="53.5486850" lon="-9.9275480">
    <ele>209.0</ele>
    <time>2025-12-24T12:36:48Z</time>
   </trkpt>
   <trkpt lat="53.5487200" lon="-9.9274960">
    <ele>210.4</ele>
    <time>2025-12-24T12:36:56Z</time>
   </trkpt>
   <trkpt lat="53.5487590" lon="-9.9274450">
    <ele>211.4</ele>
    <time>2025-12-24T12:37:03Z</time>
   </trkpt>
   <trkpt lat="53.5488140" lon="-9.9274230">
    <ele>211.8</ele>
    <time>2025-12-24T12:37:08Z</time>
   </trkpt>
   <trkpt lat="53.5488690" lon="-9.9274200">
    <ele>212.0</ele>
    <time>2025-12-24T12:37:14Z</time>
   </trkpt>
   <trkpt lat="53.5489180" lon="-9.9274040">
    <ele>212.6</ele>
    <time>2025-12-24T12:37:19Z</time>
   </trkpt>
   <trkpt lat="53.5489600" lon="-9.9273600">
    <ele>213.1</ele>
    <time>2025-12-24T12:37:25Z</time>
   </trkpt>
   <trkpt lat="53.5490030" lon="-9.9273070">
    <ele>213.6</ele>
    <time>2025-12-24T12:37:30Z</time>
   </trkpt>
   <trkpt lat="53.5490420" lon="-9.9272670">
    <ele>214.2</ele>
    <time>2025-12-24T12:37:38Z</time>
   </trkpt>
   <trkpt lat="53.5490910" lon="-9.9272540">
    <ele>214.4</ele>
    <time>2025-12-24T12:37:45Z</time>
   </trkpt>
   <trkpt lat="53.5491380" lon="-9.9272180">
    <ele>215.0</ele>
    <time>2025-12-24T12:37:51Z</time>
   </trkpt>
   <trkpt lat="53.5491760" lon="-9.9271780">
    <ele>215.6</ele>
    <time>2025-12-24T12:37:57Z</time>
   </trkpt>
   <trkpt lat="53.5492150" lon="-9.9271250">
    <ele>216.1</ele>
    <time>2025-12-24T12:38:04Z</time>
   </trkpt>
   <trkpt lat="53.5492610" lon="-9.9270930">
    <ele>217.0</ele>
    <time>2025-12-24T12:38:10Z</time>
   </trkpt>
   <trkpt lat="53.5493060" lon="-9.9270650">
    <ele>217.9</ele>
    <time>2025-12-24T12:38:19Z</time>
   </trkpt>
   <trkpt lat="53.5493540" lon="-9.9270640">
    <ele>218.1</ele>
    <time>2025-12-24T12:38:24Z</time>
   </trkpt>
   <trkpt lat="53.5494000" lon="-9.9270660">
    <ele>218.2</ele>
    <time>2025-12-24T12:38:31Z</time>
   </trkpt>
   <trkpt lat="53.5494450" lon="-9.9270650">
    <ele>218.5</ele>
    <time>2025-12-24T12:38:36Z</time>
   </trkpt>
   <trkpt lat="53.5494930" lon="-9.9270520">
    <ele>219.2</ele>
    <time>2025-12-24T12:38:44Z</time>
   </trkpt>
   <trkpt lat="53.5495420" lon="-9.9270460">
    <ele>220.0</ele>
    <time>2025-12-24T12:38:53Z</time>
   </trkpt>
   <trkpt lat="53.5495890" lon="-9.9270460">
    <ele>220.5</ele>
    <time>2025-12-24T12:38:59Z</time>
   </trkpt>
   <trkpt lat="53.5496400" lon="-9.9270520">
    <ele>220.8</ele>
    <time>2025-12-24T12:39:05Z</time>
   </trkpt>
   <trkpt lat="53.5496860" lon="-9.9270480">
    <ele>221.0</ele>
    <time>2025-12-24T12:39:10Z</time>
   </trkpt>
   <trkpt lat="53.5497350" lon="-9.9270290">
    <ele>221.6</ele>
    <time>2025-12-24T12:39:16Z</time>
   </trkpt>
   <trkpt lat="53.5497820" lon="-9.9270150">
    <ele>222.3</ele>
    <time>2025-12-24T12:39:23Z</time>
   </trkpt>
   <trkpt lat="53.5497960" lon="-9.9269430">
    <ele>222.8</ele>
    <time>2025-12-24T12:39:29Z</time>
   </trkpt>
   <trkpt lat="53.5498180" lon="-9.9268770">
    <ele>225.6</ele>
    <time>2025-12-24T12:39:46Z</time>
   </trkpt>
   <trkpt lat="53.5498180" lon="-9.9267960">
    <ele>226.9</ele>
    <time>2025-12-24T12:39:55Z</time>
   </trkpt>
   <trkpt lat="53.5498300" lon="-9.9267170">
    <ele>229.6</ele>
    <time>2025-12-24T12:40:07Z</time>
   </trkpt>
   <trkpt lat="53.5498640" lon="-9.9266590">
    <ele>230.8</ele>
    <time>2025-12-24T12:40:17Z</time>
   </trkpt>
   <trkpt lat="53.5498860" lon="-9.9265910">
    <ele>231.0</ele>
    <time>2025-12-24T12:40:23Z</time>
   </trkpt>
   <trkpt lat="53.5498750" lon="-9.9265130">
    <ele>232.5</ele>
    <time>2025-12-24T12:40:36Z</time>
   </trkpt>
   <trkpt lat="53.5498520" lon="-9.9264360">
    <ele>233.4</ele>
    <time>2025-12-24T12:40:43Z</time>
   </trkpt>
   <trkpt lat="53.5498370" lon="-9.9263550">
    <ele>233.8</ele>
    <time>2025-12-24T12:40:50Z</time>
   </trkpt>
   <trkpt lat="53.5498140" lon="-9.9262840">
    <ele>234.1</ele>
    <time>2025-12-24T12:40:56Z</time>
   </trkpt>
   <trkpt lat="53.5497870" lon="-9.9262200">
    <ele>234.6</ele>
    <time>2025-12-24T12:41:04Z</time>
   </trkpt>
   <trkpt lat="53.5497860" lon="-9.9261440">
    <ele>236.5</ele>
    <time>2025-12-24T12:41:19Z</time>
   </trkpt>
   <trkpt lat="53.5498000" lon="-9.9260690">
    <ele>237.7</ele>
    <time>2025-12-24T12:41:27Z</time>
   </trkpt>
   <trkpt lat="53.5497840" lon="-9.9259970">
    <ele>238.9</ele>
    <time>2025-12-24T12:41:35Z</time>
   </trkpt>
   <trkpt lat="53.5497660" lon="-9.9259170">
    <ele>241.6</ele>
    <time>2025-12-24T12:41:53Z</time>
   </trkpt>
   <trkpt lat="53.5497350" lon="-9.9258550">
    <ele>242.2</ele>
    <time>2025-12-24T12:41:59Z</time>
   </trkpt>
   <trkpt lat="53.5496950" lon="-9.9258150">
    <ele>242.1</ele>
    <time>2025-12-24T12:42:04Z</time>
   </trkpt>
   <trkpt lat="53.5496620" lon="-9.9257630">
    <ele>241.9</ele>
    <time>2025-12-24T12:42:10Z</time>
   </trkpt>
   <trkpt lat="53.5496460" lon="-9.9256900">
    <ele>242.6</ele>
    <time>2025-12-24T12:42:21Z</time>
   </trkpt>
   <trkpt lat="53.5496710" lon="-9.9256150">
    <ele>245.4</ele>
    <time>2025-12-24T12:42:37Z</time>
   </trkpt>
   <trkpt lat="53.5496860" lon="-9.9255390">
    <ele>248.0</ele>
    <time>2025-12-24T12:42:57Z</time>
   </trkpt>
   <trkpt lat="53.5496810" lon="-9.9254600">
    <ele>249.9</ele>
    <time>2025-12-24T12:43:20Z</time>
   </trkpt>
   <trkpt lat="53.5496630" lon="-9.9253890">
    <ele>252.3</ele>
    <time>2025-12-24T12:43:39Z</time>
   </trkpt>
   <trkpt lat="53.5496740" lon="-9.9253120">
    <ele>253.9</ele>
    <time>2025-12-24T12:43:49Z</time>
   </trkpt>
   <trkpt lat="53.5497110" lon="-9.9252630">
    <ele>258.0</ele>
    <time>2025-12-24T12:44:06Z</time>
   </trkpt>
   <trkpt lat="53.5497460" lon="-9.9252090">
    <ele>260.3</ele>
    <time>2025-12-24T12:44:20Z</time>
   </trkpt>
   <trkpt lat="53.5497390" lon="-9.9251340">
    <ele>261.0</ele>
    <time>2025-12-24T12:44:28Z</time>
   </trkpt>
   <trkpt lat="53.5497070" lon="-9.9250810">
    <ele>261.5</ele>
    <time>2025-12-24T12:44:36Z</time>
   </trkpt>
   <trkpt lat="53.5496870" lon="-9.9250110">
    <ele>264.3</ele>
    <time>2025-12-24T12:44:52Z</time>
   </trkpt>
   <trkpt lat="53.5496800" lon="-9.9249310">
    <ele>266.2</ele>
    <time>2025-12-24T12:45:03Z</time>
   </trkpt>
   <trkpt lat="53.5496530" lon="-9.9248680">
    <ele>266.1</ele>
    <time>2025-12-24T12:45:12Z</time>
   </trkpt>
   <trkpt lat="53.5496300" lon="-9.9247990">
    <ele>266.2</ele>
    <time>2025-12-24T12:45:20Z</time>
   </trkpt>
   <trkpt lat="53.5495910" lon="-9.9247550">
    <ele>266.4</ele>
    <time>2025-12-24T12:45:27Z</time>
   </trkpt>
   <trkpt lat="53.5495490" lon="-9.9247910">
    <ele>268.6</ele>
    <time>2025-12-24T12:45:39Z</time>
   </trkpt>
   <trkpt lat="53.5495170" lon="-9.9247310">
    <ele>272.3</ele>
    <time>2025-12-24T12:46:04Z</time>
   </trkpt>
   <trkpt lat="53.5495230" lon="-9.9246550">
    <ele>273.7</ele>
    <time>2025-12-24T12:46:10Z</time>
   </trkpt>
   <trkpt lat="53.5495270" lon="-9.9245770">
    <ele>274.5</ele>
    <time>2025-12-24T12:46:20Z</time>
   </trkpt>
   <trkpt lat="53.5495390" lon="-9.9245030">
    <ele>276.2</ele>
    <time>2025-12-24T12:46:32Z</time>
   </trkpt>
   <trkpt lat="53.5495650" lon="-9.9244380">
    <ele>277.9</ele>
    <time>2025-12-24T12:46:39Z</time>
   </trkpt>
   <trkpt lat="53.5495820" lon="-9.9243670">
    <ele>279.1</ele>
    <time>2025-12-24T12:46:48Z</time>
   </trkpt>
   <trkpt lat="53.5496090" lon="-9.9242950">
    <ele>280.9</ele>
    <time>2025-12-24T12:47:01Z</time>
   </trkpt>
   <trkpt lat="53.5495790" lon="-9.9242330">
    <ele>281.4</ele>
    <time>2025-12-24T12:47:12Z</time>
   </trkpt>
   <trkpt lat="53.5495380" lon="-9.9241950">
    <ele>283.8</ele>
    <time>2025-12-24T12:47:33Z</time>
   </trkpt>
   <trkpt lat="53.5494900" lon="-9.9241800">
    <ele>284.2</ele>
    <time>2025-12-24T12:47:38Z</time>
   </trkpt>
   <trkpt lat="53.5494720" lon="-9.9241040">
    <ele>284.5</ele>
    <time>2025-12-24T12:47:44Z</time>
   </trkpt>
   <trkpt lat="53.5494290" lon="-9.9240780">
    <ele>285.6</ele>
    <time>2025-12-24T12:47:53Z</time>
   </trkpt>
   <trkpt lat="53.5493900" lon="-9.9240370">
    <ele>287.0</ele>
    <time>2025-12-24T12:48:06Z</time>
   </trkpt>
   <trkpt lat="53.5493470" lon="-9.9240080">
    <ele>288.7</ele>
    <time>2025-12-24T12:48:22Z</time>
   </trkpt>
   <trkpt lat="53.5493040" lon="-9.9239750">
    <ele>290.0</ele>
    <time>2025-12-24T12:48:30Z</time>
   </trkpt>
   <trkpt lat="53.5492770" lon="-9.9239130">
    <ele>292.1</ele>
    <time>2025-12-24T12:48:45Z</time>
   </trkpt>
   <trkpt lat="53.5492380" lon="-9.9238670">
    <ele>292.0</ele>
    <time>2025-12-24T12:48:55Z</time>
   </trkpt>
   <trkpt lat="53.5492160" lon="-9.9237940">
    <ele>292.5</ele>
    <time>2025-12-24T12:49:00Z</time>
   </trkpt>
   <trkpt lat="53.5492070" lon="-9.9237130">
    <ele>294.3</ele>
    <time>2025-12-24T12:49:11Z</time>
   </trkpt>
   <trkpt lat="53.5492220" lon="-9.9236350">
    <ele>296.7</ele>
    <time>2025-12-24T12:49:21Z</time>
   </trkpt>
   <trkpt lat="53.5492130" lon="-9.9235570">
    <ele>297.8</ele>
    <time>2025-12-24T12:49:28Z</time>
   </trkpt>
   <trkpt lat="53.5492050" lon="-9.9234770">
    <ele>298.0</ele>
    <time>2025-12-24T12:49:37Z</time>
   </trkpt>
   <trkpt lat="53.5491930" lon="-9.9233970">
    <ele>298.5</ele>
    <time>2025-12-24T12:49:43Z</time>
   </trkpt>
   <trkpt lat="53.5491860" lon="-9.9233190">
    <ele>298.9</ele>
    <time>2025-12-24T12:49:48Z</time>
   </trkpt>
   <trkpt lat="53.5491680" lon="-9.9232400">
    <ele>299.0</ele>
    <time>2025-12-24T12:49:54Z</time>
   </trkpt>
   <trkpt lat="53.5491450" lon="-9.9231750">
    <ele>299.0</ele>
    <time>2025-12-24T12:50:00Z</time>
   </trkpt>
   <trkpt lat="53.5491400" lon="-9.9231000">
    <ele>300.3</ele>
    <time>2025-12-24T12:50:14Z</time>
   </trkpt>
   <trkpt lat="53.5491240" lon="-9.9230240">
    <ele>300.8</ele>
    <time>2025-12-24T12:50:25Z</time>
   </trkpt>
   <trkpt lat="53.5490950" lon="-9.9229630">
    <ele>301.3</ele>
    <time>2025-12-24T12:50:31Z</time>
   </trkpt>
   <trkpt lat="53.5491420" lon="-9.9229540">
    <ele>304.7</ele>
    <time>2025-12-24T12:50:49Z</time>
   </trkpt>
   <trkpt lat="53.5491860" lon="-9.9229860">
    <ele>306.4</ele>
    <time>2025-12-24T12:50:57Z</time>
   </trkpt>
   <trkpt lat="53.5492240" lon="-9.9230440">
    <ele>307.0</ele>
    <time>2025-12-24T12:51:02Z</time>
   </trkpt>
   <trkpt lat="53.5492480" lon="-9.9231240">
    <ele>307.6</ele>
    <time>2025-12-24T12:51:07Z</time>
   </trkpt>
   <trkpt lat="53.5492740" lon="-9.9232020">
    <ele>307.8</ele>
    <time>2025-12-24T12:51:12Z</time>
   </trkpt>
   <trkpt lat="53.5493060" lon="-9.9232620">
    <ele>307.9</ele>
    <time>2025-12-24T12:51:43Z</time>
   </trkpt>
   <trkpt lat="53.5493390" lon="-9.9233590">
    <ele>307.6</ele>
    <time>2025-12-24T12:51:48Z</time>
   </trkpt>
   <trkpt lat="53.5493910" lon="-9.9234090">
    <ele>307.4</ele>
    <time>2025-12-24T12:51:54Z</time>
   </trkpt>
   <trkpt lat="53.5493730" lon="-9.9233320">
    <ele>307.7</ele>
    <time>2025-12-24T12:52:51Z</time>
   </trkpt>
   <trkpt lat="53.5493290" lon="-9.9232980">
    <ele>306.8</ele>
    <time>2025-12-24T12:53:00Z</time>
   </trkpt>
   <trkpt lat="53.5492820" lon="-9.9231630">
    <ele>307.1</ele>
    <time>2025-12-24T12:53:06Z</time>
   </trkpt>
   <trkpt lat="53.5492400" lon="-9.9230600">
    <ele>306.8</ele>
    <time>2025-12-24T12:53:11Z</time>
   </trkpt>
   <trkpt lat="53.5492450" lon="-9.9229650">
    <ele>306.9</ele>
    <time>2025-12-24T12:53:16Z</time>
   </trkpt>
   <trkpt lat="53.5493150" lon="-9.9229470">
    <ele>307.8</ele>
    <time>2025-12-24T12:53:22Z</time>
   </trkpt>
   <trkpt lat="53.5493740" lon="-9.9229080">
    <ele>308.0</ele>
    <time>2025-12-24T12:53:27Z</time>
   </trkpt>
   <trkpt lat="53.5494120" lon="-9.9228510">
    <ele>307.3</ele>
    <time>2025-12-24T12:53:32Z</time>
   </trkpt>
   <trkpt lat="53.5494060" lon="-9.9227730">
    <ele>307.1</ele>
    <time>2025-12-24T12:53:46Z</time>
   </trkpt>
   <trkpt lat="53.5493670" lon="-9.9227140">
    <ele>307.6</ele>
    <time>2025-12-24T12:53:59Z</time>
   </trkpt>
   <trkpt lat="53.5493370" lon="-9.9226510">
    <ele>308.7</ele>
    <time>2025-12-24T12:54:09Z</time>
   </trkpt>
   <trkpt lat="53.5493240" lon="-9.9225740">
    <ele>309.7</ele>
    <time>2025-12-24T12:54:23Z</time>
   </trkpt>
   <trkpt lat="53.5493310" lon="-9.9224930">
    <ele>310.7</ele>
    <time>2025-12-24T12:54:30Z</time>
   </trkpt>
   <trkpt lat="53.5493280" lon="-9.9224100">
    <ele>313.0</ele>
    <time>2025-12-24T12:54:40Z</time>
   </trkpt>
   <trkpt lat="53.5492750" lon="-9.9223220">
    <ele>313.6</ele>
    <time>2025-12-24T12:54:45Z</time>
   </trkpt>
   <trkpt lat="53.5492770" lon="-9.9222410">
    <ele>314.1</ele>
    <time>2025-12-24T12:54:53Z</time>
   </trkpt>
   <trkpt lat="53.5492720" lon="-9.9221640">
    <ele>314.5</ele>
    <time>2025-12-24T12:54:58Z</time>
   </trkpt>
   <trkpt lat="53.5492380" lon="-9.9220980">
    <ele>314.9</ele>
    <time>2025-12-24T12:55:03Z</time>
   </trkpt>
   <trkpt lat="53.5492120" lon="-9.9220310">
    <ele>315.6</ele>
    <time>2025-12-24T12:55:08Z</time>
   </trkpt>
   <trkpt lat="53.5491970" lon="-9.9219530">
    <ele>316.9</ele>
    <time>2025-12-24T12:55:15Z</time>
   </trkpt>
   <trkpt lat="53.5491720" lon="-9.9218810">
    <ele>317.7</ele>
    <time>2025-12-24T12:55:23Z</time>
   </trkpt>
   <trkpt lat="53.5491420" lon="-9.9218240">
    <ele>318.1</ele>
    <time>2025-12-24T12:55:30Z</time>
   </trkpt>
   <trkpt lat="53.5491120" lon="-9.9217550">
    <ele>318.0</ele>
    <time>2025-12-24T12:55:38Z</time>
   </trkpt>
   <trkpt lat="53.5491430" lon="-9.9216980">
    <ele>320.4</ele>
    <time>2025-12-24T12:56:03Z</time>
   </trkpt>
   <trkpt lat="53.5491700" lon="-9.9217690">
    <ele>320.6</ele>
    <time>2025-12-24T12:56:10Z</time>
   </trkpt>
   <trkpt lat="53.5492150" lon="-9.9217410">
    <ele>322.7</ele>
    <time>2025-12-24T12:56:24Z</time>
   </trkpt>
   <trkpt lat="53.5492520" lon="-9.9216950">
    <ele>325.0</ele>
    <time>2025-12-24T12:56:43Z</time>
   </trkpt>
   <trkpt lat="53.5492310" lon="-9.9216240">
    <ele>326.2</ele>
    <time>2025-12-24T12:56:51Z</time>
   </trkpt>
   <trkpt lat="53.5491960" lon="-9.9215670">
    <ele>326.8</ele>
    <time>2025-12-24T12:57:07Z</time>
   </trkpt>
   <trkpt lat="53.5491750" lon="-9.9214970">
    <ele>327.1</ele>
    <time>2025-12-24T12:57:14Z</time>
   </trkpt>
   <trkpt lat="53.5491500" lon="-9.9214240">
    <ele>327.8</ele>
    <time>2025-12-24T12:57:27Z</time>
   </trkpt>
   <trkpt lat="53.5491190" lon="-9.9213500">
    <ele>328.4</ele>
    <time>2025-12-24T12:57:37Z</time>
   </trkpt>
   <trkpt lat="53.5491020" lon="-9.9212790">
    <ele>329.4</ele>
    <time>2025-12-24T12:57:54Z</time>
   </trkpt>
   <trkpt lat="53.5491410" lon="-9.9212390">
    <ele>331.8</ele>
    <time>2025-12-24T12:58:07Z</time>
   </trkpt>
   <trkpt lat="53.5491330" lon="-9.9211630">
    <ele>334.2</ele>
    <time>2025-12-24T12:58:24Z</time>
   </trkpt>
   <trkpt lat="53.5490940" lon="-9.9211180">
    <ele>335.6</ele>
    <time>2025-12-24T12:58:34Z</time>
   </trkpt>
   <trkpt lat="53.5490950" lon="-9.9210410">
    <ele>336.9</ele>
    <time>2025-12-24T12:58:50Z</time>
   </trkpt>
   <trkpt lat="53.5491140" lon="-9.9209620">
    <ele>338.5</ele>
    <time>2025-12-24T12:59:42Z</time>
   </trkpt>
   <trkpt lat="53.5491100" lon="-9.9208860">
    <ele>339.6</ele>
    <time>2025-12-24T12:59:50Z</time>
   </trkpt>
   <trkpt lat="53.5490620" lon="-9.9208580">
    <ele>340.6</ele>
    <time>2025-12-24T12:59:55Z</time>
   </trkpt>
   <trkpt lat="53.5490530" lon="-9.9207810">
    <ele>343.4</ele>
    <time>2025-12-24T13:00:23Z</time>
   </trkpt>
   <trkpt lat="53.5490320" lon="-9.9207090">
    <ele>344.3</ele>
    <time>2025-12-24T13:00:33Z</time>
   </trkpt>
   <trkpt lat="53.5490080" lon="-9.9206440">
    <ele>343.8</ele>
    <time>2025-12-24T13:01:12Z</time>
   </trkpt>
   <trkpt lat="53.5489880" lon="-9.9205740">
    <ele>348.4</ele>
    <time>2025-12-24T13:01:34Z</time>
   </trkpt>
   <trkpt lat="53.5489690" lon="-9.9205040">
    <ele>350.4</ele>
    <time>2025-12-24T13:01:43Z</time>
   </trkpt>
   <trkpt lat="53.5490010" lon="-9.9204490">
    <ele>354.0</ele>
    <time>2025-12-24T13:02:12Z</time>
   </trkpt>
   <trkpt lat="53.5490480" lon="-9.9204570">
    <ele>355.2</ele>
    <time>2025-12-24T13:02:35Z</time>
   </trkpt>
   <trkpt lat="53.5490690" lon="-9.9203850">
    <ele>357.0</ele>
    <time>2025-12-24T13:02:48Z</time>
   </trkpt>
   <trkpt lat="53.5490530" lon="-9.9203090">
    <ele>358.1</ele>
    <time>2025-12-24T13:02:59Z</time>
   </trkpt>
   <trkpt lat="53.5490180" lon="-9.9202570">
    <ele>358.5</ele>
    <time>2025-12-24T13:03:08Z</time>
   </trkpt>
   <trkpt lat="53.5489870" lon="-9.9202000">
    <ele>360.5</ele>
    <time>2025-12-24T13:03:31Z</time>
   </trkpt>
   <trkpt lat="53.5489650" lon="-9.9201320">
    <ele>361.3</ele>
    <time>2025-12-24T13:03:38Z</time>
   </trkpt>
   <trkpt lat="53.5489650" lon="-9.9200540">
    <ele>363.7</ele>
    <time>2025-12-24T13:06:08Z</time>
   </trkpt>
   <trkpt lat="53.5490090" lon="-9.9200820">
    <ele>367.4</ele>
    <time>2025-12-24T13:07:36Z</time>
   </trkpt>
   <trkpt lat="53.5490580" lon="-9.9200780">
    <ele>366.5</ele>
    <time>2025-12-24T13:07:54Z</time>
   </trkpt>
   <trkpt lat="53.5491030" lon="-9.9200880">
    <ele>370.0</ele>
    <time>2025-12-24T13:09:04Z</time>
   </trkpt>
   <trkpt lat="53.5491480" lon="-9.9200720">
    <ele>372.7</ele>
    <time>2025-12-24T13:09:31Z</time>
   </trkpt>
   <trkpt lat="53.5491930" lon="-9.9201180">
    <ele>373.6</ele>
    <time>2025-12-24T13:09:40Z</time>
   </trkpt>
   <trkpt lat="53.5492390" lon="-9.9201410">
    <ele>375.9</ele>
    <time>2025-12-24T13:09:54Z</time>
   </trkpt>
   <trkpt lat="53.5492730" lon="-9.9200910">
    <ele>379.8</ele>
    <time>2025-12-24T13:10:17Z</time>
   </trkpt>
   <trkpt lat="53.5493170" lon="-9.9200740">
    <ele>382.4</ele>
    <time>2025-12-24T13:10:37Z</time>
   </trkpt>
   <trkpt lat="53.5493670" lon="-9.9200630">
    <ele>385.2</ele>
    <time>2025-12-24T13:11:05Z</time>
   </trkpt>
   <trkpt lat="53.5494110" lon="-9.9200360">
    <ele>388.7</ele>
    <time>2025-12-24T13:11:33Z</time>
   </trkpt>
   <trkpt lat="53.5494580" lon="-9.9200350">
    <ele>389.8</ele>
    <time>2025-12-24T13:11:43Z</time>
   </trkpt>
   <trkpt lat="53.5495010" lon="-9.9200100">
    <ele>391.5</ele>
    <time>2025-12-24T13:11:58Z</time>
   </trkpt>
   <trkpt lat="53.5495220" lon="-9.9199430">
    <ele>393.4</ele>
    <time>2025-12-24T13:12:23Z</time>
   </trkpt>
   <trkpt lat="53.5495270" lon="-9.9198680">
    <ele>396.8</ele>
    <time>2025-12-24T13:12:59Z</time>
   </trkpt>
   <trkpt lat="53.5495190" lon="-9.9197910">
    <ele>400.2</ele>
    <time>2025-12-24T13:13:15Z</time>
   </trkpt>
   <trkpt lat="53.5494840" lon="-9.9197410">
    <ele>402.2</ele>
    <time>2025-12-24T13:13:29Z</time>
   </trkpt>
   <trkpt lat="53.5494560" lon="-9.9196800">
    <ele>406.2</ele>
    <time>2025-12-24T13:13:49Z</time>
   </trkpt>
   <trkpt lat="53.5494310" lon="-9.9196150">
    <ele>407.4</ele>
    <time>2025-12-24T13:13:59Z</time>
   </trkpt>
   <trkpt lat="53.5494180" lon="-9.9195350">
    <ele>410.4</ele>
    <time>2025-12-24T13:14:38Z</time>
   </trkpt>
   <trkpt lat="53.5493750" lon="-9.9194470">
    <ele>411.4</ele>
    <time>2025-12-24T13:14:43Z</time>
   </trkpt>
   <trkpt lat="53.5493560" lon="-9.9193750">
    <ele>411.9</ele>
    <time>2025-12-24T13:14:48Z</time>
   </trkpt>
   <trkpt lat="53.5493810" lon="-9.9192930">
    <ele>412.7</ele>
    <time>2025-12-24T13:14:53Z</time>
   </trkpt>
   <trkpt lat="53.5493480" lon="-9.9192070">
    <ele>413.5</ele>
    <time>2025-12-24T13:14:59Z</time>
   </trkpt>
   <trkpt lat="53.5493290" lon="-9.9191250">
    <ele>414.1</ele>
    <time>2025-12-24T13:15:15Z</time>
   </trkpt>
   <trkpt lat="53.5492970" lon="-9.9190250">
    <ele>414.2</ele>
    <time>2025-12-24T13:15:20Z</time>
   </trkpt>
   <trkpt lat="53.5492370" lon="-9.9189440">
    <ele>415.2</ele>
    <time>2025-12-24T13:15:26Z</time>
   </trkpt>
   <trkpt lat="53.5492080" lon="-9.9188790">
    <ele>417.1</ele>
    <time>2025-12-24T13:15:32Z</time>
   </trkpt>
   <trkpt lat="53.5491610" lon="-9.9188830">
    <ele>418.7</ele>
    <time>2025-12-24T13:15:39Z</time>
   </trkpt>
   <trkpt lat="53.5491300" lon="-9.9188200">
    <ele>419.7</ele>
    <time>2025-12-24T13:15:47Z</time>
   </trkpt>
   <trkpt lat="53.5491260" lon="-9.9187360">
    <ele>420.3</ele>
    <time>2025-12-24T13:15:58Z</time>
   </trkpt>
   <trkpt lat="53.5491140" lon="-9.9186300">
    <ele>420.5</ele>
    <time>2025-12-24T13:16:03Z</time>
   </trkpt>
   <trkpt lat="53.5490870" lon="-9.9185600">
    <ele>420.4</ele>
    <time>2025-12-24T13:16:09Z</time>
   </trkpt>
   <trkpt lat="53.5490690" lon="-9.9184870">
    <ele>420.4</ele>
    <time>2025-12-24T13:16:15Z</time>
   </trkpt>
   <trkpt lat="53.5490490" lon="-9.9184130">
    <ele>420.6</ele>
    <time>2025-12-24T13:16:20Z</time>
   </trkpt>
   <trkpt lat="53.5490410" lon="-9.9183060">
    <ele>420.6</ele>
    <time>2025-12-24T13:16:25Z</time>
   </trkpt>
   <trkpt lat="53.5490370" lon="-9.9182000">
    <ele>421.2</ele>
    <time>2025-12-24T13:16:31Z</time>
   </trkpt>
   <trkpt lat="53.5490180" lon="-9.9181270">
    <ele>421.9</ele>
    <time>2025-12-24T13:16:37Z</time>
   </trkpt>
   <trkpt lat="53.5490130" lon="-9.9180410">
    <ele>422.5</ele>
    <time>2025-12-24T13:16:44Z</time>
   </trkpt>
   <trkpt lat="53.5490060" lon="-9.9179450">
    <ele>423.1</ele>
    <time>2025-12-24T13:16:49Z</time>
   </trkpt>
   <trkpt lat="53.5490180" lon="-9.9178690">
    <ele>423.7</ele>
    <time>2025-12-24T13:16:55Z</time>
   </trkpt>
   <trkpt lat="53.5490350" lon="-9.9177950">
    <ele>423.6</ele>
    <time>2025-12-24T13:18:36Z</time>
   </trkpt>
   <trkpt lat="53.5490370" lon="-9.9177160">
    <ele>424.0</ele>
    <time>2025-12-24T13:18:41Z</time>
   </trkpt>
   <trkpt lat="53.5490530" lon="-9.9176430">
    <ele>425.1</ele>
    <time>2025-12-24T13:18:49Z</time>
   </trkpt>
   <trkpt lat="53.5490470" lon="-9.9175680">
    <ele>426.5</ele>
    <time>2025-12-24T13:18:57Z</time>
   </trkpt>
   <trkpt lat="53.5490100" lon="-9.9175230">
    <ele>428.0</ele>
    <time>2025-12-24T13:19:05Z</time>
   </trkpt>
   <trkpt lat="53.5489920" lon="-9.9174520">
    <ele>431.8</ele>
    <time>2025-12-24T13:19:36Z</time>
   </trkpt>
   <trkpt lat="53.5489750" lon="-9.9173770">
    <ele>432.1</ele>
    <time>2025-12-24T13:19:48Z</time>
   </trkpt>
   <trkpt lat="53.5489200" lon="-9.9172710">
    <ele>432.2</ele>
    <time>2025-12-24T13:19:53Z</time>
   </trkpt>
   <trkpt lat="53.5488940" lon="-9.9171950">
    <ele>432.7</ele>
    <time>2025-12-24T13:19:58Z</time>
   </trkpt>
   <trkpt lat="53.5488730" lon="-9.9171160">
    <ele>434.2</ele>
    <time>2025-12-24T13:20:11Z</time>
   </trkpt>
   <trkpt lat="53.5488420" lon="-9.9170440">
    <ele>434.9</ele>
    <time>2025-12-24T13:20:16Z</time>
   </trkpt>
   <trkpt lat="53.5487990" lon="-9.9170000">
    <ele>435.2</ele>
    <time>2025-12-24T13:20:23Z</time>
   </trkpt>
   <trkpt lat="53.5487780" lon="-9.9169190">
    <ele>435.8</ele>
    <time>2025-12-24T13:20:29Z</time>
   </trkpt>
   <trkpt lat="53.5487560" lon="-9.9168410">
    <ele>436.1</ele>
    <time>2025-12-24T13:20:35Z</time>
   </trkpt>
   <trkpt lat="53.5487630" lon="-9.9167560">
    <ele>436.6</ele>
    <time>2025-12-24T13:20:40Z</time>
   </trkpt>
   <trkpt lat="53.5487730" lon="-9.9166770">
    <ele>437.7</ele>
    <time>2025-12-24T13:20:46Z</time>
   </trkpt>
   <trkpt lat="53.5487600" lon="-9.9165790">
    <ele>437.7</ele>
    <time>2025-12-24T13:20:51Z</time>
   </trkpt>
   <trkpt lat="53.5487450" lon="-9.9164910">
    <ele>437.2</ele>
    <time>2025-12-24T13:20:56Z</time>
   </trkpt>
   <trkpt lat="53.5487170" lon="-9.9164250">
    <ele>437.5</ele>
    <time>2025-12-24T13:21:06Z</time>
   </trkpt>
   <trkpt lat="53.5487230" lon="-9.9163160">
    <ele>437.3</ele>
    <time>2025-12-24T13:21:12Z</time>
   </trkpt>
   <trkpt lat="53.5487300" lon="-9.9162330">
    <ele>437.2</ele>
    <time>2025-12-24T13:21:17Z</time>
   </trkpt>
   <trkpt lat="53.5486970" lon="-9.9161400">
    <ele>437.4</ele>
    <time>2025-12-24T13:21:23Z</time>
   </trkpt>
   <trkpt lat="53.5486800" lon="-9.9160630">
    <ele>437.5</ele>
    <time>2025-12-24T13:21:28Z</time>
   </trkpt>
   <trkpt lat="53.5486600" lon="-9.9159890">
    <ele>437.5</ele>
    <time>2025-12-24T13:21:34Z</time>
   </trkpt>
   <trkpt lat="53.5486210" lon="-9.9159100">
    <ele>437.6</ele>
    <time>2025-12-24T13:21:39Z</time>
   </trkpt>
   <trkpt lat="53.5485980" lon="-9.9158310">
    <ele>438.3</ele>
    <time>2025-12-24T13:21:44Z</time>
   </trkpt>
   <trkpt lat="53.5485700" lon="-9.9157710">
    <ele>439.9</ele>
    <time>2025-12-24T13:21:55Z</time>
   </trkpt>
   <trkpt lat="53.5485620" lon="-9.9156950">
    <ele>441.8</ele>
    <time>2025-12-24T13:22:19Z</time>
   </trkpt>
   <trkpt lat="53.5485360" lon="-9.9156330">
    <ele>443.4</ele>
    <time>2025-12-24T13:22:32Z</time>
   </trkpt>
   <trkpt lat="53.5484940" lon="-9.9156020">
    <ele>445.4</ele>
    <time>2025-12-24T13:23:11Z</time>
   </trkpt>
   <trkpt lat="53.5484760" lon="-9.9155300">
    <ele>445.8</ele>
    <time>2025-12-24T13:23:31Z</time>
   </trkpt>
   <trkpt lat="53.5484630" lon="-9.9153940">
    <ele>446.3</ele>
    <time>2025-12-24T13:23:37Z</time>
   </trkpt>
   <trkpt lat="53.5484660" lon="-9.9152850">
    <ele>445.8</ele>
    <time>2025-12-24T13:23:42Z</time>
   </trkpt>
   <trkpt lat="53.5484220" lon="-9.9151920">
    <ele>444.7</ele>
    <time>2025-12-24T13:23:47Z</time>
   </trkpt>
   <trkpt lat="53.5484160" lon="-9.9151130">
    <ele>443.0</ele>
    <time>2025-12-24T13:23:52Z</time>
   </trkpt>
   <trkpt lat="53.5484000" lon="-9.9150410">
    <ele>442.1</ele>
    <time>2025-12-24T13:23:59Z</time>
   </trkpt>
   <trkpt lat="53.5483620" lon="-9.9149940">
    <ele>441.9</ele>
    <time>2025-12-24T13:24:05Z</time>
   </trkpt>
   <trkpt lat="53.5483280" lon="-9.9149440">
    <ele>442.7</ele>
    <time>2025-12-24T13:24:32Z</time>
   </trkpt>
   <trkpt lat="53.5482940" lon="-9.9148930">
    <ele>444.8</ele>
    <time>2025-12-24T13:24:54Z</time>
   </trkpt>
   <trkpt lat="53.5482770" lon="-9.9148170">
    <ele>446.6</ele>
    <time>2025-12-24T13:25:03Z</time>
   </trkpt>
   <trkpt lat="53.5482320" lon="-9.9147840">
    <ele>447.1</ele>
    <time>2025-12-24T13:25:11Z</time>
   </trkpt>
   <trkpt lat="53.5481980" lon="-9.9147290">
    <ele>448.5</ele>
    <time>2025-12-24T13:26:43Z</time>
   </trkpt>
   <trkpt lat="53.5481710" lon="-9.9146250">
    <ele>447.3</ele>
    <time>2025-12-24T13:26:48Z</time>
   </trkpt>
   <trkpt lat="53.5481840" lon="-9.9145450">
    <ele>446.6</ele>
    <time>2025-12-24T13:27:01Z</time>
   </trkpt>
   <trkpt lat="53.5481540" lon="-9.9144680">
    <ele>446.8</ele>
    <time>2025-12-24T13:27:06Z</time>
   </trkpt>
   <trkpt lat="53.5481350" lon="-9.9143900">
    <ele>443.5</ele>
    <time>2025-12-24T13:28:26Z</time>
   </trkpt>
   <trkpt lat="53.5480900" lon="-9.9143640">
    <ele>444.0</ele>
    <time>2025-12-24T13:28:35Z</time>
   </trkpt>
   <trkpt lat="53.5480560" lon="-9.9143130">
    <ele>441.7</ele>
    <time>2025-12-24T13:29:21Z</time>
   </trkpt>
   <trkpt lat="53.5480710" lon="-9.9142370">
    <ele>442.4</ele>
    <time>2025-12-24T13:29:27Z</time>
   </trkpt>
   <trkpt lat="53.5480770" lon="-9.9141350">
    <ele>441.8</ele>
    <time>2025-12-24T13:29:33Z</time>
   </trkpt>
   <trkpt lat="53.5480590" lon="-9.9140650">
    <ele>441.6</ele>
    <time>2025-12-24T13:29:42Z</time>
   </trkpt>
   <trkpt lat="53.5480370" lon="-9.9139360">
    <ele>441.2</ele>
    <time>2025-12-24T13:29:47Z</time>
   </trkpt>
   <trkpt lat="53.5480090" lon="-9.9138400">
    <ele>440.2</ele>
    <time>2025-12-24T13:29:53Z</time>
   </trkpt>
   <trkpt lat="53.5479810" lon="-9.9137720">
    <ele>436.5</ele>
    <time>2025-12-24T13:30:12Z</time>
   </trkpt>
   <trkpt lat="53.5479420" lon="-9.9137310">
    <ele>438.1</ele>
    <time>2025-12-24T13:30:31Z</time>
   </trkpt>
   <trkpt lat="53.5478970" lon="-9.9137350">
    <ele>437.1</ele>
    <time>2025-12-24T13:30:37Z</time>
   </trkpt>
   <trkpt lat="53.5478600" lon="-9.9137860">
    <ele>435.9</ele>
    <time>2025-12-24T13:30:48Z</time>
   </trkpt>
   <trkpt lat="53.5478380" lon="-9.9137160">
    <ele>431.1</ele>
    <time>2025-12-24T13:31:10Z</time>
   </trkpt>
   <trkpt lat="53.5477920" lon="-9.9137050">
    <ele>428.9</ele>
    <time>2025-12-24T13:31:30Z</time>
   </trkpt>
   <trkpt lat="53.5477480" lon="-9.9136870">
    <ele>428.2</ele>
    <time>2025-12-24T13:31:47Z</time>
   </trkpt>
   <trkpt lat="53.5477600" lon="-9.9136130">
    <ele>426.1</ele>
    <time>2025-12-24T13:32:00Z</time>
   </trkpt>
   <trkpt lat="53.5477610" lon="-9.9135370">
    <ele>425.0</ele>
    <time>2025-12-24T13:32:09Z</time>
   </trkpt>
   <trkpt lat="53.5477530" lon="-9.9134530">
    <ele>420.1</ele>
    <time>2025-12-24T13:32:23Z</time>
   </trkpt>
   <trkpt lat="53.5477560" lon="-9.9133720">
    <ele>418.8</ele>
    <time>2025-12-24T13:32:29Z</time>
   </trkpt>
   <trkpt lat="53.5477720" lon="-9.9132970">
    <ele>417.8</ele>
    <time>2025-12-24T13:32:36Z</time>
   </trkpt>
   <trkpt lat="53.5478080" lon="-9.9132020">
    <ele>417.2</ele>
    <time>2025-12-24T13:32:41Z</time>
   </trkpt>
   <trkpt lat="53.5478490" lon="-9.9131100">
    <ele>416.8</ele>
    <time>2025-12-24T13:32:46Z</time>
   </trkpt>
   <trkpt lat="53.5478860" lon="-9.9130610">
    <ele>416.6</ele>
    <time>2025-12-24T13:32:53Z</time>
   </trkpt>
   <trkpt lat="53.5479050" lon="-9.9129860">
    <ele>416.0</ele>
    <time>2025-12-24T13:33:01Z</time>
   </trkpt>
   <trkpt lat="53.5479340" lon="-9.9129220">
    <ele>415.0</ele>
    <time>2025-12-24T13:33:07Z</time>
   </trkpt>
   <trkpt lat="53.5479720" lon="-9.9128820">
    <ele>412.0</ele>
    <time>2025-12-24T13:33:20Z</time>
   </trkpt>
   <trkpt lat="53.5480060" lon="-9.9128310">
    <ele>408.6</ele>
    <time>2025-12-24T13:33:37Z</time>
   </trkpt>
   <trkpt lat="53.5480320" lon="-9.9127690">
    <ele>407.2</ele>
    <time>2025-12-24T13:33:43Z</time>
   </trkpt>
   <trkpt lat="53.5480460" lon="-9.9126920">
    <ele>404.7</ele>
    <time>2025-12-24T13:33:56Z</time>
   </trkpt>
   <trkpt lat="53.5480720" lon="-9.9126280">
    <ele>402.6</ele>
    <time>2025-12-24T13:34:06Z</time>
   </trkpt>
   <trkpt lat="53.5480730" lon="-9.9125500">
    <ele>399.2</ele>
    <time>2025-12-24T13:34:23Z</time>
   </trkpt>
   <trkpt lat="53.5480440" lon="-9.9124830">
    <ele>394.0</ele>
    <time>2025-12-24T13:34:45Z</time>
   </trkpt>
   <trkpt lat="53.5479990" lon="-9.9124530">
    <ele>392.3</ele>
    <time>2025-12-24T13:34:51Z</time>
   </trkpt>
   <trkpt lat="53.5480200" lon="-9.9123830">
    <ele>390.0</ele>
    <time>2025-12-24T13:35:02Z</time>
   </trkpt>
   <trkpt lat="53.5480630" lon="-9.9123400">
    <ele>390.0</ele>
    <time>2025-12-24T13:35:07Z</time>
   </trkpt>
   <trkpt lat="53.5480830" lon="-9.9122720">
    <ele>389.2</ele>
    <time>2025-12-24T13:35:13Z</time>
   </trkpt>
   <trkpt lat="53.5480880" lon="-9.9121970">
    <ele>387.5</ele>
    <time>2025-12-24T13:35:23Z</time>
   </trkpt>
   <trkpt lat="53.5481210" lon="-9.9121370">
    <ele>386.0</ele>
    <time>2025-12-24T13:35:30Z</time>
   </trkpt>
   <trkpt lat="53.5481580" lon="-9.9120910">
    <ele>384.9</ele>
    <time>2025-12-24T13:35:36Z</time>
   </trkpt>
   <trkpt lat="53.5481690" lon="-9.9120160">
    <ele>383.4</ele>
    <time>2025-12-24T13:35:44Z</time>
   </trkpt>
   <trkpt lat="53.5481770" lon="-9.9119390">
    <ele>381.7</ele>
    <time>2025-12-24T13:35:53Z</time>
   </trkpt>
   <trkpt lat="53.5481910" lon="-9.9118630">
    <ele>380.0</ele>
    <time>2025-12-24T13:36:04Z</time>
   </trkpt>
   <trkpt lat="53.5481910" lon="-9.9117860">
    <ele>378.5</ele>
    <time>2025-12-24T13:36:12Z</time>
   </trkpt>
   <trkpt lat="53.5481670" lon="-9.9117190">
    <ele>377.1</ele>
    <time>2025-12-24T13:36:21Z</time>
   </trkpt>
   <trkpt lat="53.5481580" lon="-9.9116400">
    <ele>374.8</ele>
    <time>2025-12-24T13:36:34Z</time>
   </trkpt>
   <trkpt lat="53.5481350" lon="-9.9115720">
    <ele>373.9</ele>
    <time>2025-12-24T13:36:42Z</time>
   </trkpt>
   <trkpt lat="53.5481110" lon="-9.9114970">
    <ele>372.3</ele>
    <time>2025-12-24T13:36:49Z</time>
   </trkpt>
   <trkpt lat="53.5481000" lon="-9.9114160">
    <ele>370.5</ele>
    <time>2025-12-24T13:36:56Z</time>
   </trkpt>
   <trkpt lat="53.5480680" lon="-9.9113580">
    <ele>369.2</ele>
    <time>2025-12-24T13:37:05Z</time>
   </trkpt>
   <trkpt lat="53.5480750" lon="-9.9112830">
    <ele>367.0</ele>
    <time>2025-12-24T13:37:18Z</time>
   </trkpt>
   <trkpt lat="53.5480700" lon="-9.9112040">
    <ele>365.5</ele>
    <time>2025-12-24T13:37:26Z</time>
   </trkpt>
   <trkpt lat="53.5480430" lon="-9.9111330">
    <ele>364.4</ele>
    <time>2025-12-24T13:37:33Z</time>
   </trkpt>
   <trkpt lat="53.5480100" lon="-9.9110730">
    <ele>363.2</ele>
    <time>2025-12-24T13:37:43Z</time>
   </trkpt>
   <trkpt lat="53.5479750" lon="-9.9110180">
    <ele>361.7</ele>
    <time>2025-12-24T13:37:51Z</time>
   </trkpt>
   <trkpt lat="53.5479460" lon="-9.9109590">
    <ele>359.6</ele>
    <time>2025-12-24T13:38:05Z</time>
   </trkpt>
   <trkpt lat="53.5479160" lon="-9.9108940">
    <ele>358.8</ele>
    <time>2025-12-24T13:38:12Z</time>
   </trkpt>
   <trkpt lat="53.5478970" lon="-9.9108250">
    <ele>357.2</ele>
    <time>2025-12-24T13:38:21Z</time>
   </trkpt>
   <trkpt lat="53.5478500" lon="-9.9108280">
    <ele>356.1</ele>
    <time>2025-12-24T13:38:28Z</time>
   </trkpt>
   <trkpt lat="53.5478200" lon="-9.9108890">
    <ele>352.8</ele>
    <time>2025-12-24T13:38:45Z</time>
   </trkpt>
   <trkpt lat="53.5477740" lon="-9.9109610">
    <ele>352.0</ele>
    <time>2025-12-24T13:38:50Z</time>
   </trkpt>
   <trkpt lat="53.5477310" lon="-9.9109960">
    <ele>350.9</ele>
    <time>2025-12-24T13:38:57Z</time>
   </trkpt>
   <trkpt lat="53.5477030" lon="-9.9110570">
    <ele>349.9</ele>
    <time>2025-12-24T13:39:04Z</time>
   </trkpt>
   <trkpt lat="53.5476580" lon="-9.9110650">
    <ele>348.7</ele>
    <time>2025-12-24T13:39:10Z</time>
   </trkpt>
   <trkpt lat="53.5476120" lon="-9.9110900">
    <ele>348.3</ele>
    <time>2025-12-24T13:39:15Z</time>
   </trkpt>
   <trkpt lat="53.5475760" lon="-9.9111360">
    <ele>344.3</ele>
    <time>2025-12-24T13:56:38Z</time>
   </trkpt>
   <trkpt lat="53.5475420" lon="-9.9110820">
    <ele>349.9</ele>
    <time>2025-12-24T14:03:02Z</time>
   </trkpt>
   <trkpt lat="53.5475110" lon="-9.9110250">
    <ele>347.7</ele>
    <time>2025-12-24T14:03:13Z</time>
   </trkpt>
   <trkpt lat="53.5474730" lon="-9.9109540">
    <ele>347.4</ele>
    <time>2025-12-24T14:03:18Z</time>
   </trkpt>
   <trkpt lat="53.5474330" lon="-9.9109010">
    <ele>344.3</ele>
    <time>2025-12-24T14:03:48Z</time>
   </trkpt>
   <trkpt lat="53.5473880" lon="-9.9109450">
    <ele>343.4</ele>
    <time>2025-12-24T14:03:56Z</time>
   </trkpt>
   <trkpt lat="53.5473380" lon="-9.9109610">
    <ele>340.4</ele>
    <time>2025-12-24T14:04:10Z</time>
   </trkpt>
   <trkpt lat="53.5473030" lon="-9.9110170">
    <ele>337.2</ele>
    <time>2025-12-24T14:04:24Z</time>
   </trkpt>
   <trkpt lat="53.5472860" lon="-9.9110890">
    <ele>335.1</ele>
    <time>2025-12-24T14:04:32Z</time>
   </trkpt>
   <trkpt lat="53.5472840" lon="-9.9111650">
    <ele>334.0</ele>
    <time>2025-12-24T14:04:41Z</time>
   </trkpt>
   <trkpt lat="53.5472480" lon="-9.9112320">
    <ele>333.2</ele>
    <time>2025-12-24T14:04:49Z</time>
   </trkpt>
   <trkpt lat="53.5472170" lon="-9.9112920">
    <ele>332.4</ele>
    <time>2025-12-24T14:04:56Z</time>
   </trkpt>
   <trkpt lat="53.5472060" lon="-9.9113650">
    <ele>330.8</ele>
    <time>2025-12-24T14:05:08Z</time>
   </trkpt>
   <trkpt lat="53.5471690" lon="-9.9114110">
    <ele>329.3</ele>
    <time>2025-12-24T14:05:19Z</time>
   </trkpt>
   <trkpt lat="53.5471250" lon="-9.9114450">
    <ele>327.8</ele>
    <time>2025-12-24T14:05:29Z</time>
   </trkpt>
   <trkpt lat="53.5471010" lon="-9.9115120">
    <ele>325.8</ele>
    <time>2025-12-24T14:05:39Z</time>
   </trkpt>
   <trkpt lat="53.5470850" lon="-9.9116020">
    <ele>324.4</ele>
    <time>2025-12-24T14:05:44Z</time>
   </trkpt>
   <trkpt lat="53.5470460" lon="-9.9116460">
    <ele>322.8</ele>
    <time>2025-12-24T14:05:55Z</time>
   </trkpt>
   <trkpt lat="53.5470070" lon="-9.9116830">
    <ele>320.9</ele>
    <time>2025-12-24T14:06:07Z</time>
   </trkpt>
   <trkpt lat="53.5469680" lon="-9.9117220">
    <ele>320.2</ele>
    <time>2025-12-24T14:06:13Z</time>
   </trkpt>
   <trkpt lat="53.5469200" lon="-9.9117080">
    <ele>319.9</ele>
    <time>2025-12-24T14:06:20Z</time>
   </trkpt>
   <trkpt lat="53.5468640" lon="-9.9117200">
    <ele>319.8</ele>
    <time>2025-12-24T14:06:25Z</time>
   </trkpt>
   <trkpt lat="53.5468180" lon="-9.9117560">
    <ele>319.8</ele>
    <time>2025-12-24T14:06:30Z</time>
   </trkpt>
   <trkpt lat="53.5467730" lon="-9.9117430">
    <ele>320.2</ele>
    <time>2025-12-24T14:06:38Z</time>
   </trkpt>
   <trkpt lat="53.5467290" lon="-9.9117700">
    <ele>319.8</ele>
    <time>2025-12-24T14:06:44Z</time>
   </trkpt>
   <trkpt lat="53.5466840" lon="-9.9118120">
    <ele>320.3</ele>
    <time>2025-12-24T14:06:50Z</time>
   </trkpt>
   <trkpt lat="53.5466340" lon="-9.9118310">
    <ele>321.1</ele>
    <time>2025-12-24T14:06:56Z</time>
   </trkpt>
   <trkpt lat="53.5465910" lon="-9.9118570">
    <ele>321.5</ele>
    <time>2025-12-24T14:07:02Z</time>
   </trkpt>
   <trkpt lat="53.5465440" lon="-9.9118760">
    <ele>321.4</ele>
    <time>2025-12-24T14:07:08Z</time>
   </trkpt>
   <trkpt lat="53.5465010" lon="-9.9119050">
    <ele>321.1</ele>
    <time>2025-12-24T14:07:14Z</time>
   </trkpt>
   <trkpt lat="53.5464500" lon="-9.9119130">
    <ele>320.9</ele>
    <time>2025-12-24T14:07:20Z</time>
   </trkpt>
   <trkpt lat="53.5464120" lon="-9.9119630">
    <ele>321.1</ele>
    <time>2025-12-24T14:07:34Z</time>
   </trkpt>
   <trkpt lat="53.5463540" lon="-9.9120010">
    <ele>321.2</ele>
    <time>2025-12-24T14:07:39Z</time>
   </trkpt>
   <trkpt lat="53.5463100" lon="-9.9120230">
    <ele>321.3</ele>
    <time>2025-12-24T14:07:45Z</time>
   </trkpt>
   <trkpt lat="53.5462640" lon="-9.9120310">
    <ele>320.9</ele>
    <time>2025-12-24T14:07:53Z</time>
   </trkpt>
   <trkpt lat="53.5462190" lon="-9.9120230">
    <ele>320.3</ele>
    <time>2025-12-24T14:08:01Z</time>
   </trkpt>
   <trkpt lat="53.5461710" lon="-9.9120140">
    <ele>319.6</ele>
    <time>2025-12-24T14:08:08Z</time>
   </trkpt>
   <trkpt lat="53.5461250" lon="-9.9120140">
    <ele>318.0</ele>
    <time>2025-12-24T14:08:19Z</time>
   </trkpt>
   <trkpt lat="53.5460810" lon="-9.9119890">
    <ele>317.0</ele>
    <time>2025-12-24T14:08:30Z</time>
   </trkpt>
   <trkpt lat="53.5460150" lon="-9.9119930">
    <ele>316.7</ele>
    <time>2025-12-24T14:08:35Z</time>
   </trkpt>
   <trkpt lat="53.5459710" lon="-9.9120230">
    <ele>316.0</ele>
    <time>2025-12-24T14:08:42Z</time>
   </trkpt>
   <trkpt lat="53.5459270" lon="-9.9120170">
    <ele>314.4</ele>
    <time>2025-12-24T14:08:53Z</time>
   </trkpt>
   <trkpt lat="53.5458820" lon="-9.9120330">
    <ele>312.4</ele>
    <time>2025-12-24T14:09:02Z</time>
   </trkpt>
   <trkpt lat="53.5458380" lon="-9.9120580">
    <ele>311.5</ele>
    <time>2025-12-24T14:09:08Z</time>
   </trkpt>
   <trkpt lat="53.5457940" lon="-9.9120770">
    <ele>310.9</ele>
    <time>2025-12-24T14:09:17Z</time>
   </trkpt>
   <trkpt lat="53.5457520" lon="-9.9121100">
    <ele>306.2</ele>
    <time>2025-12-24T14:10:02Z</time>
   </trkpt>
   <trkpt lat="53.5456990" lon="-9.9121700">
    <ele>306.7</ele>
    <time>2025-12-24T14:10:08Z</time>
   </trkpt>
   <trkpt lat="53.5456640" lon="-9.9122240">
    <ele>305.0</ele>
    <time>2025-12-24T14:10:16Z</time>
   </trkpt>
   <trkpt lat="53.5456210" lon="-9.9122680">
    <ele>303.7</ele>
    <time>2025-12-24T14:10:22Z</time>
   </trkpt>
   <trkpt lat="53.5455730" lon="-9.9123000">
    <ele>302.9</ele>
    <time>2025-12-24T14:10:27Z</time>
   </trkpt>
   <trkpt lat="53.5455170" lon="-9.9124250">
    <ele>301.6</ele>
    <time>2025-12-24T14:10:33Z</time>
   </trkpt>
   <trkpt lat="53.5454960" lon="-9.9125630">
    <ele>300.8</ele>
    <time>2025-12-24T14:10:38Z</time>
   </trkpt>
   <trkpt lat="53.5454670" lon="-9.9126530">
    <ele>300.5</ele>
    <time>2025-12-24T14:10:44Z</time>
   </trkpt>
   <trkpt lat="53.5454230" lon="-9.9127110">
    <ele>299.7</ele>
    <time>2025-12-24T14:10:49Z</time>
   </trkpt>
   <trkpt lat="53.5453910" lon="-9.9127760">
    <ele>298.4</ele>
    <time>2025-12-24T14:10:55Z</time>
   </trkpt>
   <trkpt lat="53.5453650" lon="-9.9128420">
    <ele>296.7</ele>
    <time>2025-12-24T14:11:02Z</time>
   </trkpt>
   <trkpt lat="53.5453540" lon="-9.9129180">
    <ele>295.7</ele>
    <time>2025-12-24T14:11:08Z</time>
   </trkpt>
   <trkpt lat="53.5453470" lon="-9.9129940">
    <ele>295.5</ele>
    <time>2025-12-24T14:11:13Z</time>
   </trkpt>
   <trkpt lat="53.5453330" lon="-9.9130730">
    <ele>295.6</ele>
    <time>2025-12-24T14:11:19Z</time>
   </trkpt>
   <trkpt lat="53.5453100" lon="-9.9131550">
    <ele>295.4</ele>
    <time>2025-12-24T14:11:24Z</time>
   </trkpt>
   <trkpt lat="53.5452790" lon="-9.9132110">
    <ele>295.0</ele>
    <time>2025-12-24T14:11:31Z</time>
   </trkpt>
   <trkpt lat="53.5452620" lon="-9.9132820">
    <ele>294.1</ele>
    <time>2025-12-24T14:11:40Z</time>
   </trkpt>
   <trkpt lat="53.5452220" lon="-9.9133220">
    <ele>293.0</ele>
    <time>2025-12-24T14:11:49Z</time>
   </trkpt>
   <trkpt lat="53.5451950" lon="-9.9133830">
    <ele>292.5</ele>
    <time>2025-12-24T14:11:56Z</time>
   </trkpt>
   <trkpt lat="53.5451780" lon="-9.9134640">
    <ele>292.0</ele>
    <time>2025-12-24T14:12:02Z</time>
   </trkpt>
   <trkpt lat="53.5451680" lon="-9.9135420">
    <ele>290.4</ele>
    <time>2025-12-24T14:12:12Z</time>
   </trkpt>
   <trkpt lat="53.5451800" lon="-9.9136230">
    <ele>289.1</ele>
    <time>2025-12-24T14:12:20Z</time>
   </trkpt>
   <trkpt lat="53.5451750" lon="-9.9137000">
    <ele>287.9</ele>
    <time>2025-12-24T14:12:28Z</time>
   </trkpt>
   <trkpt lat="53.5451430" lon="-9.9137550">
    <ele>287.1</ele>
    <time>2025-12-24T14:12:35Z</time>
   </trkpt>
   <trkpt lat="53.5451320" lon="-9.9138280">
    <ele>286.0</ele>
    <time>2025-12-24T14:12:43Z</time>
   </trkpt>
   <trkpt lat="53.5451390" lon="-9.9139070">
    <ele>284.8</ele>
    <time>2025-12-24T14:12:49Z</time>
   </trkpt>
   <trkpt lat="53.5451570" lon="-9.9139770">
    <ele>283.6</ele>
    <time>2025-12-24T14:12:57Z</time>
   </trkpt>
   <trkpt lat="53.5451780" lon="-9.9140480">
    <ele>282.9</ele>
    <time>2025-12-24T14:13:04Z</time>
   </trkpt>
   <trkpt lat="53.5451780" lon="-9.9141270">
    <ele>282.3</ele>
    <time>2025-12-24T14:13:11Z</time>
   </trkpt>
   <trkpt lat="53.5451800" lon="-9.9142090">
    <ele>281.2</ele>
    <time>2025-12-24T14:13:20Z</time>
   </trkpt>
   <trkpt lat="53.5451910" lon="-9.9142900">
    <ele>279.8</ele>
    <time>2025-12-24T14:13:29Z</time>
   </trkpt>
   <trkpt lat="53.5452020" lon="-9.9143670">
    <ele>279.1</ele>
    <time>2025-12-24T14:13:37Z</time>
   </trkpt>
   <trkpt lat="53.5452250" lon="-9.9144320">
    <ele>278.2</ele>
    <time>2025-12-24T14:13:46Z</time>
   </trkpt>
   <trkpt lat="53.5452250" lon="-9.9145130">
    <ele>277.8</ele>
    <time>2025-12-24T14:13:54Z</time>
   </trkpt>
   <trkpt lat="53.5452210" lon="-9.9145880">
    <ele>276.8</ele>
    <time>2025-12-24T14:14:03Z</time>
   </trkpt>
   <trkpt lat="53.5452160" lon="-9.9146670">
    <ele>276.1</ele>
    <time>2025-12-24T14:14:10Z</time>
   </trkpt>
   <trkpt lat="53.5452150" lon="-9.9147440">
    <ele>275.4</ele>
    <time>2025-12-24T14:14:16Z</time>
   </trkpt>
   <trkpt lat="53.5451940" lon="-9.9148180">
    <ele>274.0</ele>
    <time>2025-12-24T14:14:27Z</time>
   </trkpt>
   <trkpt lat="53.5451800" lon="-9.9148940">
    <ele>272.4</ele>
    <time>2025-12-24T14:14:36Z</time>
   </trkpt>
   <trkpt lat="53.5452000" lon="-9.9149690">
    <ele>271.0</ele>
    <time>2025-12-24T14:14:48Z</time>
   </trkpt>
   <trkpt lat="53.5452320" lon="-9.9150310">
    <ele>269.9</ele>
    <time>2025-12-24T14:14:54Z</time>
   </trkpt>
   <trkpt lat="53.5452030" lon="-9.9149730">
    <ele>268.8</ele>
    <time>2025-12-24T14:15:26Z</time>
   </trkpt>
   <trkpt lat="53.5452360" lon="-9.9150340">
    <ele>269.3</ele>
    <time>2025-12-24T14:16:31Z</time>
   </trkpt>
   <trkpt lat="53.5452770" lon="-9.9151730">
    <ele>269.0</ele>
    <time>2025-12-24T14:16:36Z</time>
   </trkpt>
   <trkpt lat="53.5453180" lon="-9.9152200">
    <ele>268.2</ele>
    <time>2025-12-24T14:16:41Z</time>
   </trkpt>
   <trkpt lat="53.5453560" lon="-9.9152650">
    <ele>267.3</ele>
    <time>2025-12-24T14:16:47Z</time>
   </trkpt>
   <trkpt lat="53.5453900" lon="-9.9153420">
    <ele>266.5</ele>
    <time>2025-12-24T14:16:52Z</time>
   </trkpt>
   <trkpt lat="53.5453970" lon="-9.9154500">
    <ele>265.6</ele>
    <time>2025-12-24T14:16:57Z</time>
   </trkpt>
   <trkpt lat="53.5454170" lon="-9.9155370">
    <ele>264.8</ele>
    <time>2025-12-24T14:17:03Z</time>
   </trkpt>
   <trkpt lat="53.5454320" lon="-9.9156300">
    <ele>263.4</ele>
    <time>2025-12-24T14:17:08Z</time>
   </trkpt>
   <trkpt lat="53.5454530" lon="-9.9157340">
    <ele>262.8</ele>
    <time>2025-12-24T14:17:13Z</time>
   </trkpt>
   <trkpt lat="53.5454980" lon="-9.9157900">
    <ele>262.4</ele>
    <time>2025-12-24T14:17:18Z</time>
   </trkpt>
   <trkpt lat="53.5455320" lon="-9.9158590">
    <ele>261.7</ele>
    <time>2025-12-24T14:17:24Z</time>
   </trkpt>
   <trkpt lat="53.5455660" lon="-9.9159200">
    <ele>260.9</ele>
    <time>2025-12-24T14:17:29Z</time>
   </trkpt>
   <trkpt lat="53.5455930" lon="-9.9159980">
    <ele>260.0</ele>
    <time>2025-12-24T14:17:34Z</time>
   </trkpt>
   <trkpt lat="53.5456090" lon="-9.9161110">
    <ele>259.1</ele>
    <time>2025-12-24T14:17:39Z</time>
   </trkpt>
   <trkpt lat="53.5456340" lon="-9.9162000">
    <ele>258.4</ele>
    <time>2025-12-24T14:17:44Z</time>
   </trkpt>
   <trkpt lat="53.5456800" lon="-9.9162610">
    <ele>257.6</ele>
    <time>2025-12-24T14:17:50Z</time>
   </trkpt>
   <trkpt lat="53.5457300" lon="-9.9163150">
    <ele>256.9</ele>
    <time>2025-12-24T14:17:55Z</time>
   </trkpt>
   <trkpt lat="53.5457760" lon="-9.9163630">
    <ele>256.0</ele>
    <time>2025-12-24T14:18:01Z</time>
   </trkpt>
   <trkpt lat="53.5458140" lon="-9.9164090">
    <ele>254.8</ele>
    <time>2025-12-24T14:18:07Z</time>
   </trkpt>
   <trkpt lat="53.5458530" lon="-9.9164530">
    <ele>253.2</ele>
    <time>2025-12-24T14:18:12Z</time>
   </trkpt>
   <trkpt lat="53.5458700" lon="-9.9165430">
    <ele>251.4</ele>
    <time>2025-12-24T14:18:18Z</time>
   </trkpt>
   <trkpt lat="53.5459110" lon="-9.9165930">
    <ele>250.3</ele>
    <time>2025-12-24T14:18:23Z</time>
   </trkpt>
   <trkpt lat="53.5459610" lon="-9.9166540">
    <ele>249.0</ele>
    <time>2025-12-24T14:18:29Z</time>
   </trkpt>
   <trkpt lat="53.5460090" lon="-9.9167370">
    <ele>248.1</ele>
    <time>2025-12-24T14:18:34Z</time>
   </trkpt>
   <trkpt lat="53.5460690" lon="-9.9168350">
    <ele>247.7</ele>
    <time>2025-12-24T14:18:39Z</time>
   </trkpt>
   <trkpt lat="53.5461050" lon="-9.9168830">
    <ele>247.5</ele>
    <time>2025-12-24T14:18:44Z</time>
   </trkpt>
   <trkpt lat="53.5461500" lon="-9.9169600">
    <ele>247.7</ele>
    <time>2025-12-24T14:18:50Z</time>
   </trkpt>
   <trkpt lat="53.5462020" lon="-9.9170240">
    <ele>247.8</ele>
    <time>2025-12-24T14:18:55Z</time>
   </trkpt>
   <trkpt lat="53.5462470" lon="-9.9171000">
    <ele>247.6</ele>
    <time>2025-12-24T14:19:01Z</time>
   </trkpt>
   <trkpt lat="53.5462940" lon="-9.9171230">
    <ele>247.7</ele>
    <time>2025-12-24T14:19:06Z</time>
   </trkpt>
   <trkpt lat="53.5463260" lon="-9.9170680">
    <ele>247.4</ele>
    <time>2025-12-24T14:19:15Z</time>
   </trkpt>
   <trkpt lat="53.5463730" lon="-9.9170350">
    <ele>247.1</ele>
    <time>2025-12-24T14:19:22Z</time>
   </trkpt>
   <trkpt lat="53.5464210" lon="-9.9170430">
    <ele>246.9</ele>
    <time>2025-12-24T14:19:27Z</time>
   </trkpt>
   <trkpt lat="53.5464840" lon="-9.9170930">
    <ele>246.6</ele>
    <time>2025-12-24T14:19:32Z</time>
   </trkpt>
   <trkpt lat="53.5465110" lon="-9.9171560">
    <ele>246.5</ele>
    <time>2025-12-24T14:19:38Z</time>
   </trkpt>
   <trkpt lat="53.5465330" lon="-9.9172600">
    <ele>246.6</ele>
    <time>2025-12-24T14:19:43Z</time>
   </trkpt>
   <trkpt lat="53.5465760" lon="-9.9173540">
    <ele>247.1</ele>
    <time>2025-12-24T14:19:48Z</time>
   </trkpt>
   <trkpt lat="53.5465950" lon="-9.9174580">
    <ele>247.1</ele>
    <time>2025-12-24T14:19:54Z</time>
   </trkpt>
   <trkpt lat="53.5466250" lon="-9.9175490">
    <ele>246.8</ele>
    <time>2025-12-24T14:19:59Z</time>
   </trkpt>
   <trkpt lat="53.5466340" lon="-9.9176410">
    <ele>246.9</ele>
    <time>2025-12-24T14:20:04Z</time>
   </trkpt>
   <trkpt lat="53.5466350" lon="-9.9177550">
    <ele>246.9</ele>
    <time>2025-12-24T14:20:10Z</time>
   </trkpt>
   <trkpt lat="53.5466560" lon="-9.9178490">
    <ele>246.7</ele>
    <time>2025-12-24T14:20:15Z</time>
   </trkpt>
   <trkpt lat="53.5466930" lon="-9.9179290">
    <ele>246.1</ele>
    <time>2025-12-24T14:20:21Z</time>
   </trkpt>
   <trkpt lat="53.5466990" lon="-9.9180230">
    <ele>245.7</ele>
    <time>2025-12-24T14:20:26Z</time>
   </trkpt>
   <trkpt lat="53.5467170" lon="-9.9181280">
    <ele>245.3</ele>
    <time>2025-12-24T14:20:32Z</time>
   </trkpt>
   <trkpt lat="53.5467310" lon="-9.9182180">
    <ele>245.1</ele>
    <time>2025-12-24T14:20:37Z</time>
   </trkpt>
   <trkpt lat="53.5467490" lon="-9.9183000">
    <ele>244.9</ele>
    <time>2025-12-24T14:20:42Z</time>
   </trkpt>
   <trkpt lat="53.5467570" lon="-9.9183760">
    <ele>244.4</ele>
    <time>2025-12-24T14:20:47Z</time>
   </trkpt>
   <trkpt lat="53.5467860" lon="-9.9184680">
    <ele>244.0</ele>
    <time>2025-12-24T14:20:53Z</time>
   </trkpt>
   <trkpt lat="53.5468120" lon="-9.9185380">
    <ele>243.5</ele>
    <time>2025-12-24T14:20:58Z</time>
   </trkpt>
   <trkpt lat="53.5468300" lon="-9.9186240">
    <ele>243.6</ele>
    <time>2025-12-24T14:21:03Z</time>
   </trkpt>
   <trkpt lat="53.5468400" lon="-9.9187230">
    <ele>243.8</ele>
    <time>2025-12-24T14:21:09Z</time>
   </trkpt>
   <trkpt lat="53.5468590" lon="-9.9188070">
    <ele>243.9</ele>
    <time>2025-12-24T14:21:14Z</time>
   </trkpt>
   <trkpt lat="53.5468720" lon="-9.9189010">
    <ele>244.1</ele>
    <time>2025-12-24T14:21:19Z</time>
   </trkpt>
   <trkpt lat="53.5468830" lon="-9.9189850">
    <ele>244.3</ele>
    <time>2025-12-24T14:21:24Z</time>
   </trkpt>
   <trkpt lat="53.5468800" lon="-9.9190680">
    <ele>244.5</ele>
    <time>2025-12-24T14:21:29Z</time>
   </trkpt>
   <trkpt lat="53.5468670" lon="-9.9191720">
    <ele>244.5</ele>
    <time>2025-12-24T14:21:35Z</time>
   </trkpt>
   <trkpt lat="53.5468940" lon="-9.9192720">
    <ele>244.0</ele>
    <time>2025-12-24T14:21:40Z</time>
   </trkpt>
   <trkpt lat="53.5469090" lon="-9.9193770">
    <ele>243.1</ele>
    <time>2025-12-24T14:21:46Z</time>
   </trkpt>
   <trkpt lat="53.5469270" lon="-9.9194750">
    <ele>242.7</ele>
    <time>2025-12-24T14:21:51Z</time>
   </trkpt>
   <trkpt lat="53.5469470" lon="-9.9195600">
    <ele>243.1</ele>
    <time>2025-12-24T14:21:56Z</time>
   </trkpt>
   <trkpt lat="53.5469620" lon="-9.9196700">
    <ele>243.5</ele>
    <time>2025-12-24T14:22:02Z</time>
   </trkpt>
   <trkpt lat="53.5469780" lon="-9.9197700">
    <ele>243.6</ele>
    <time>2025-12-24T14:22:07Z</time>
   </trkpt>
   <trkpt lat="53.5469910" lon="-9.9198540">
    <ele>243.4</ele>
    <time>2025-12-24T14:22:13Z</time>
   </trkpt>
   <trkpt lat="53.5470030" lon="-9.9199490">
    <ele>243.4</ele>
    <time>2025-12-24T14:22:18Z</time>
   </trkpt>
   <trkpt lat="53.5470260" lon="-9.9200460">
    <ele>243.2</ele>
    <time>2025-12-24T14:22:23Z</time>
   </trkpt>
   <trkpt lat="53.5470350" lon="-9.9201250">
    <ele>243.0</ele>
    <time>2025-12-24T14:22:29Z</time>
   </trkpt>
   <trkpt lat="53.5470490" lon="-9.9202040">
    <ele>242.9</ele>
    <time>2025-12-24T14:22:34Z</time>
   </trkpt>
   <trkpt lat="53.5470800" lon="-9.9202660">
    <ele>242.6</ele>
    <time>2025-12-24T14:22:40Z</time>
   </trkpt>
   <trkpt lat="53.5470870" lon="-9.9203430">
    <ele>242.7</ele>
    <time>2025-12-24T14:22:47Z</time>
   </trkpt>
   <trkpt lat="53.5470750" lon="-9.9204370">
    <ele>242.7</ele>
    <time>2025-12-24T14:22:52Z</time>
   </trkpt>
   <trkpt lat="53.5470700" lon="-9.9205400">
    <ele>242.4</ele>
    <time>2025-12-24T14:22:57Z</time>
   </trkpt>
   <trkpt lat="53.5470740" lon="-9.9206330">
    <ele>242.2</ele>
    <time>2025-12-24T14:23:03Z</time>
   </trkpt>
   <trkpt lat="53.5470810" lon="-9.9207220">
    <ele>242.3</ele>
    <time>2025-12-24T14:23:08Z</time>
   </trkpt>
   <trkpt lat="53.5470650" lon="-9.9208020">
    <ele>242.3</ele>
    <time>2025-12-24T14:23:13Z</time>
   </trkpt>
   <trkpt lat="53.5470340" lon="-9.9208790">
    <ele>242.1</ele>
    <time>2025-12-24T14:23:18Z</time>
   </trkpt>
   <trkpt lat="53.5470080" lon="-9.9209890">
    <ele>242.1</ele>
    <time>2025-12-24T14:23:24Z</time>
   </trkpt>
   <trkpt lat="53.5470010" lon="-9.9210910">
    <ele>242.2</ele>
    <time>2025-12-24T14:23:29Z</time>
   </trkpt>
   <trkpt lat="53.5470140" lon="-9.9212060">
    <ele>242.5</ele>
    <time>2025-12-24T14:23:35Z</time>
   </trkpt>
   <trkpt lat="53.5470170" lon="-9.9212970">
    <ele>242.9</ele>
    <time>2025-12-24T14:23:41Z</time>
   </trkpt>
   <trkpt lat="53.5469990" lon="-9.9213930">
    <ele>243.3</ele>
    <time>2025-12-24T14:23:46Z</time>
   </trkpt>
   <trkpt lat="53.5469800" lon="-9.9214860">
    <ele>243.4</ele>
    <time>2025-12-24T14:23:51Z</time>
   </trkpt>
   <trkpt lat="53.5469760" lon="-9.9215960">
    <ele>243.2</ele>
    <time>2025-12-24T14:23:56Z</time>
   </trkpt>
   <trkpt lat="53.5469800" lon="-9.9217030">
    <ele>243.0</ele>
    <time>2025-12-24T14:24:02Z</time>
   </trkpt>
   <trkpt lat="53.5470000" lon="-9.9218000">
    <ele>243.0</ele>
    <time>2025-12-24T14:24:07Z</time>
   </trkpt>
   <trkpt lat="53.5470360" lon="-9.9218900">
    <ele>243.1</ele>
    <time>2025-12-24T14:24:13Z</time>
   </trkpt>
   <trkpt lat="53.5470570" lon="-9.9219620">
    <ele>243.5</ele>
    <time>2025-12-24T14:24:18Z</time>
   </trkpt>
   <trkpt lat="53.5470770" lon="-9.9220600">
    <ele>243.7</ele>
    <time>2025-12-24T14:24:23Z</time>
   </trkpt>
   <trkpt lat="53.5470890" lon="-9.9221560">
    <ele>243.4</ele>
    <time>2025-12-24T14:24:29Z</time>
   </trkpt>
   <trkpt lat="53.5470870" lon="-9.9222600">
    <ele>243.1</ele>
    <time>2025-12-24T14:24:34Z</time>
   </trkpt>
   <trkpt lat="53.5470700" lon="-9.9223700">
    <ele>242.7</ele>
    <time>2025-12-24T14:24:40Z</time>
   </trkpt>
   <trkpt lat="53.5470690" lon="-9.9224530">
    <ele>242.3</ele>
    <time>2025-12-24T14:24:45Z</time>
   </trkpt>
   <trkpt lat="53.5470720" lon="-9.9225340">
    <ele>242.1</ele>
    <time>2025-12-24T14:24:52Z</time>
   </trkpt>
   <trkpt lat="53.5470830" lon="-9.9226230">
    <ele>240.3</ele>
    <time>2025-12-24T14:25:18Z</time>
   </trkpt>
   <trkpt lat="53.5470490" lon="-9.9226910">
    <ele>239.3</ele>
    <time>2025-12-24T14:25:24Z</time>
   </trkpt>
   <trkpt lat="53.5469970" lon="-9.9227430">
    <ele>238.4</ele>
    <time>2025-12-24T14:25:29Z</time>
   </trkpt>
   <trkpt lat="53.5469370" lon="-9.9227780">
    <ele>238.0</ele>
    <time>2025-12-24T14:25:34Z</time>
   </trkpt>
   <trkpt lat="53.5468790" lon="-9.9228270">
    <ele>238.3</ele>
    <time>2025-12-24T14:25:40Z</time>
   </trkpt>
   <trkpt lat="53.5468320" lon="-9.9228970">
    <ele>238.6</ele>
    <time>2025-12-24T14:25:45Z</time>
   </trkpt>
   <trkpt lat="53.5467780" lon="-9.9229300">
    <ele>238.6</ele>
    <time>2025-12-24T14:25:50Z</time>
   </trkpt>
   <trkpt lat="53.5467730" lon="-9.9230250">
    <ele>238.6</ele>
    <time>2025-12-24T14:25:56Z</time>
   </trkpt>
   <trkpt lat="53.5467940" lon="-9.9231530">
    <ele>238.7</ele>
    <time>2025-12-24T14:26:01Z</time>
   </trkpt>
   <trkpt lat="53.5468030" lon="-9.9232730">
    <ele>238.4</ele>
    <time>2025-12-24T14:26:06Z</time>
   </trkpt>
   <trkpt lat="53.5468080" lon="-9.9233570">
    <ele>238.4</ele>
    <time>2025-12-24T14:26:12Z</time>
   </trkpt>
   <trkpt lat="53.5468370" lon="-9.9234540">
    <ele>238.8</ele>
    <time>2025-12-24T14:26:17Z</time>
   </trkpt>
   <trkpt lat="53.5468510" lon="-9.9235410">
    <ele>238.8</ele>
    <time>2025-12-24T14:26:22Z</time>
   </trkpt>
   <trkpt lat="53.5468570" lon="-9.9236600">
    <ele>238.4</ele>
    <time>2025-12-24T14:26:28Z</time>
   </trkpt>
   <trkpt lat="53.5468600" lon="-9.9237700">
    <ele>237.8</ele>
    <time>2025-12-24T14:26:33Z</time>
   </trkpt>
   <trkpt lat="53.5468640" lon="-9.9238830">
    <ele>237.2</ele>
    <time>2025-12-24T14:26:39Z</time>
   </trkpt>
   <trkpt lat="53.5468670" lon="-9.9239860">
    <ele>237.2</ele>
    <time>2025-12-24T14:26:44Z</time>
   </trkpt>
   <trkpt lat="53.5468770" lon="-9.9240720">
    <ele>237.4</ele>
    <time>2025-12-24T14:26:49Z</time>
   </trkpt>
   <trkpt lat="53.5468870" lon="-9.9241620">
    <ele>237.8</ele>
    <time>2025-12-24T14:26:54Z</time>
   </trkpt>
   <trkpt lat="53.5468980" lon="-9.9242440">
    <ele>238.5</ele>
    <time>2025-12-24T14:26:59Z</time>
   </trkpt>
   <trkpt lat="53.5469180" lon="-9.9243550">
    <ele>238.7</ele>
    <time>2025-12-24T14:27:05Z</time>
   </trkpt>
   <trkpt lat="53.5469490" lon="-9.9244400">
    <ele>239.3</ele>
    <time>2025-12-24T14:27:10Z</time>
   </trkpt>
   <trkpt lat="53.5469770" lon="-9.9245340">
    <ele>239.7</ele>
    <time>2025-12-24T14:27:16Z</time>
   </trkpt>
   <trkpt lat="53.5469920" lon="-9.9246140">
    <ele>239.6</ele>
    <time>2025-12-24T14:27:21Z</time>
   </trkpt>
   <trkpt lat="53.5470140" lon="-9.9247270">
    <ele>239.3</ele>
    <time>2025-12-24T14:27:27Z</time>
   </trkpt>
   <trkpt lat="53.5470260" lon="-9.9248340">
    <ele>238.6</ele>
    <time>2025-12-24T14:27:32Z</time>
   </trkpt>
   <trkpt lat="53.5470660" lon="-9.9249300">
    <ele>238.0</ele>
    <time>2025-12-24T14:27:38Z</time>
   </trkpt>
   <trkpt lat="53.5470740" lon="-9.9250300">
    <ele>237.3</ele>
    <time>2025-12-24T14:27:43Z</time>
   </trkpt>
   <trkpt lat="53.5470950" lon="-9.9251250">
    <ele>236.5</ele>
    <time>2025-12-24T14:27:49Z</time>
   </trkpt>
   <trkpt lat="53.5471170" lon="-9.9252180">
    <ele>235.6</ele>
    <time>2025-12-24T14:27:54Z</time>
   </trkpt>
   <trkpt lat="53.5471260" lon="-9.9253100">
    <ele>234.7</ele>
    <time>2025-12-24T14:28:00Z</time>
   </trkpt>
   <trkpt lat="53.5471650" lon="-9.9253760">
    <ele>234.3</ele>
    <time>2025-12-24T14:28:05Z</time>
   </trkpt>
   <trkpt lat="53.5471820" lon="-9.9254470">
    <ele>234.0</ele>
    <time>2025-12-24T14:28:13Z</time>
   </trkpt>
   <trkpt lat="53.5472010" lon="-9.9255170">
    <ele>233.3</ele>
    <time>2025-12-24T14:28:20Z</time>
   </trkpt>
   <trkpt lat="53.5472340" lon="-9.9255720">
    <ele>232.2</ele>
    <time>2025-12-24T14:28:26Z</time>
   </trkpt>
   <trkpt lat="53.5472630" lon="-9.9256330">
    <ele>231.2</ele>
    <time>2025-12-24T14:28:32Z</time>
   </trkpt>
   <trkpt lat="53.5472930" lon="-9.9256980">
    <ele>230.8</ele>
    <time>2025-12-24T14:28:38Z</time>
   </trkpt>
   <trkpt lat="53.5473180" lon="-9.9257610">
    <ele>230.6</ele>
    <time>2025-12-24T14:28:43Z</time>
   </trkpt>
   <trkpt lat="53.5473240" lon="-9.9258410">
    <ele>230.4</ele>
    <time>2025-12-24T14:28:48Z</time>
   </trkpt>
   <trkpt lat="53.5473490" lon="-9.9259100">
    <ele>229.9</ele>
    <time>2025-12-24T14:28:54Z</time>
   </trkpt>
   <trkpt lat="53.5473720" lon="-9.9259810">
    <ele>229.1</ele>
    <time>2025-12-24T14:29:00Z</time>
   </trkpt>
   <trkpt lat="53.5473760" lon="-9.9260590">
    <ele>228.8</ele>
    <time>2025-12-24T14:29:06Z</time>
   </trkpt>
   <trkpt lat="53.5473720" lon="-9.9261360">
    <ele>227.9</ele>
    <time>2025-12-24T14:29:16Z</time>
   </trkpt>
   <trkpt lat="53.5473630" lon="-9.9262160">
    <ele>227.1</ele>
    <time>2025-12-24T14:29:22Z</time>
   </trkpt>
   <trkpt lat="53.5473480" lon="-9.9262910">
    <ele>226.0</ele>
    <time>2025-12-24T14:29:29Z</time>
   </trkpt>
   <trkpt lat="53.5473180" lon="-9.9263520">
    <ele>225.4</ele>
    <time>2025-12-24T14:29:43Z</time>
   </trkpt>
   <trkpt lat="53.5472980" lon="-9.9264510">
    <ele>225.0</ele>
    <time>2025-12-24T14:29:49Z</time>
   </trkpt>
   <trkpt lat="53.5472880" lon="-9.9265290">
    <ele>223.7</ele>
    <time>2025-12-24T14:29:54Z</time>
   </trkpt>
   <trkpt lat="53.5472750" lon="-9.9266050">
    <ele>222.2</ele>
    <time>2025-12-24T14:30:01Z</time>
   </trkpt>
   <trkpt lat="53.5472630" lon="-9.9266800">
    <ele>221.1</ele>
    <time>2025-12-24T14:30:11Z</time>
   </trkpt>
   <trkpt lat="53.5472530" lon="-9.9267550">
    <ele>220.1</ele>
    <time>2025-12-24T14:30:19Z</time>
   </trkpt>
   <trkpt lat="53.5472420" lon="-9.9268340">
    <ele>218.9</ele>
    <time>2025-12-24T14:30:27Z</time>
   </trkpt>
   <trkpt lat="53.5472260" lon="-9.9269100">
    <ele>217.8</ele>
    <time>2025-12-24T14:30:34Z</time>
   </trkpt>
   <trkpt lat="53.5472050" lon="-9.9269800">
    <ele>216.5</ele>
    <time>2025-12-24T14:30:42Z</time>
   </trkpt>
   <trkpt lat="53.5471840" lon="-9.9270560">
    <ele>215.7</ele>
    <time>2025-12-24T14:30:48Z</time>
   </trkpt>
   <trkpt lat="53.5471750" lon="-9.9271330">
    <ele>214.9</ele>
    <time>2025-12-24T14:30:54Z</time>
   </trkpt>
   <trkpt lat="53.5471870" lon="-9.9272100">
    <ele>214.1</ele>
    <time>2025-12-24T14:31:01Z</time>
   </trkpt>
   <trkpt lat="53.5472170" lon="-9.9272960">
    <ele>212.6</ele>
    <time>2025-12-24T14:31:22Z</time>
   </trkpt>
   <trkpt lat="53.5472350" lon="-9.9273920">
    <ele>212.0</ele>
    <time>2025-12-24T14:31:28Z</time>
   </trkpt>
   <trkpt lat="53.5472210" lon="-9.9274820">
    <ele>216.9</ele>
    <time>2025-12-24T14:31:42Z</time>
   </trkpt>
   <trkpt lat="53.5471950" lon="-9.9275760">
    <ele>214.3</ele>
    <time>2025-12-24T14:31:47Z</time>
   </trkpt>
   <trkpt lat="53.5472040" lon="-9.9276540">
    <ele>211.9</ele>
    <time>2025-12-24T14:31:53Z</time>
   </trkpt>
   <trkpt lat="53.5472050" lon="-9.9277360">
    <ele>209.9</ele>
    <time>2025-12-24T14:32:00Z</time>
   </trkpt>
   <trkpt lat="53.5472050" lon="-9.9278120">
    <ele>209.0</ele>
    <time>2025-12-24T14:32:06Z</time>
   </trkpt>
   <trkpt lat="53.5472020" lon="-9.9278940">
    <ele>208.2</ele>
    <time>2025-12-24T14:32:12Z</time>
   </trkpt>
   <trkpt lat="53.5471880" lon="-9.9279710">
    <ele>206.8</ele>
    <time>2025-12-24T14:32:22Z</time>
   </trkpt>
   <trkpt lat="53.5471740" lon="-9.9280530">
    <ele>205.6</ele>
    <time>2025-12-24T14:32:29Z</time>
   </trkpt>
   <trkpt lat="53.5471600" lon="-9.9281270">
    <ele>204.5</ele>
    <time>2025-12-24T14:32:37Z</time>
   </trkpt>
   <trkpt lat="53.5471460" lon="-9.9282030">
    <ele>203.2</ele>
    <time>2025-12-24T14:32:45Z</time>
   </trkpt>
   <trkpt lat="53.5471220" lon="-9.9282750">
    <ele>202.4</ele>
    <time>2025-12-24T14:32:52Z</time>
   </trkpt>
   <trkpt lat="53.5471140" lon="-9.9283510">
    <ele>201.8</ele>
    <time>2025-12-24T14:32:58Z</time>
   </trkpt>
   <trkpt lat="53.5471080" lon="-9.9284320">
    <ele>201.2</ele>
    <time>2025-12-24T14:33:04Z</time>
   </trkpt>
   <trkpt lat="53.5471150" lon="-9.9285140">
    <ele>200.3</ele>
    <time>2025-12-24T14:33:14Z</time>
   </trkpt>
   <trkpt lat="53.5471090" lon="-9.9285890">
    <ele>199.4</ele>
    <time>2025-12-24T14:33:21Z</time>
   </trkpt>
   <trkpt lat="53.5471020" lon="-9.9286670">
    <ele>198.7</ele>
    <time>2025-12-24T14:33:27Z</time>
   </trkpt>
   <trkpt lat="53.5470930" lon="-9.9287420">
    <ele>197.8</ele>
    <time>2025-12-24T14:33:35Z</time>
   </trkpt>
   <trkpt lat="53.5470690" lon="-9.9288130">
    <ele>196.5</ele>
    <time>2025-12-24T14:33:45Z</time>
   </trkpt>
   <trkpt lat="53.5470630" lon="-9.9288900">
    <ele>195.7</ele>
    <time>2025-12-24T14:33:53Z</time>
   </trkpt>
   <trkpt lat="53.5470630" lon="-9.9289810">
    <ele>194.6</ele>
    <time>2025-12-24T14:35:05Z</time>
   </trkpt>
   <trkpt lat="53.5470370" lon="-9.9290700">
    <ele>194.3</ele>
    <time>2025-12-24T14:35:10Z</time>
   </trkpt>
   <trkpt lat="53.5470130" lon="-9.9291790">
    <ele>193.4</ele>
    <time>2025-12-24T14:35:16Z</time>
   </trkpt>
   <trkpt lat="53.5469630" lon="-9.9292620">
    <ele>192.6</ele>
    <time>2025-12-24T14:35:21Z</time>
   </trkpt>
   <trkpt lat="53.5469080" lon="-9.9293400">
    <ele>191.8</ele>
    <time>2025-12-24T14:35:26Z</time>
   </trkpt>
   <trkpt lat="53.5468490" lon="-9.9294100">
    <ele>191.0</ele>
    <time>2025-12-24T14:35:31Z</time>
   </trkpt>
   <trkpt lat="53.5468120" lon="-9.9295030">
    <ele>190.1</ele>
    <time>2025-12-24T14:35:37Z</time>
   </trkpt>
   <trkpt lat="53.5467620" lon="-9.9295860">
    <ele>189.1</ele>
    <time>2025-12-24T14:35:42Z</time>
   </trkpt>
   <trkpt lat="53.5467220" lon="-9.9296850">
    <ele>188.2</ele>
    <time>2025-12-24T14:35:47Z</time>
   </trkpt>
   <trkpt lat="53.5466790" lon="-9.9297680">
    <ele>187.2</ele>
    <time>2025-12-24T14:35:52Z</time>
   </trkpt>
   <trkpt lat="53.5466600" lon="-9.9298950">
    <ele>186.0</ele>
    <time>2025-12-24T14:35:57Z</time>
   </trkpt>
   <trkpt lat="53.5466120" lon="-9.9299920">
    <ele>184.9</ele>
    <time>2025-12-24T14:36:03Z</time>
   </trkpt>
   <trkpt lat="53.5465810" lon="-9.9300690">
    <ele>184.1</ele>
    <time>2025-12-24T14:36:08Z</time>
   </trkpt>
   <trkpt lat="53.5465790" lon="-9.9301510">
    <ele>183.0</ele>
    <time>2025-12-24T14:36:14Z</time>
   </trkpt>
   <trkpt lat="53.5465910" lon="-9.9302430">
    <ele>182.3</ele>
    <time>2025-12-24T14:36:19Z</time>
   </trkpt>
   <trkpt lat="53.5466030" lon="-9.9303210">
    <ele>181.3</ele>
    <time>2025-12-24T14:36:25Z</time>
   </trkpt>
   <trkpt lat="53.5466120" lon="-9.9304120">
    <ele>180.4</ele>
    <time>2025-12-24T14:36:30Z</time>
   </trkpt>
   <trkpt lat="53.5465720" lon="-9.9304560">
    <ele>179.4</ele>
    <time>2025-12-24T14:36:37Z</time>
   </trkpt>
   <trkpt lat="53.5465330" lon="-9.9305070">
    <ele>178.3</ele>
    <time>2025-12-24T14:36:42Z</time>
   </trkpt>
   <trkpt lat="53.5465060" lon="-9.9305730">
    <ele>177.6</ele>
    <time>2025-12-24T14:36:48Z</time>
   </trkpt>
   <trkpt lat="53.5464930" lon="-9.9306460">
    <ele>176.8</ele>
    <time>2025-12-24T14:36:55Z</time>
   </trkpt>
   <trkpt lat="53.5465040" lon="-9.9307260">
    <ele>176.1</ele>
    <time>2025-12-24T14:37:02Z</time>
   </trkpt>
   <trkpt lat="53.5465160" lon="-9.9308060">
    <ele>175.0</ele>
    <time>2025-12-24T14:37:08Z</time>
   </trkpt>
   <trkpt lat="53.5465080" lon="-9.9308830">
    <ele>174.1</ele>
    <time>2025-12-24T14:37:14Z</time>
   </trkpt>
   <trkpt lat="53.5464880" lon="-9.9309530">
    <ele>173.5</ele>
    <time>2025-12-24T14:37:20Z</time>
   </trkpt>
   <trkpt lat="53.5464890" lon="-9.9310370">
    <ele>172.6</ele>
    <time>2025-12-24T14:37:28Z</time>
   </trkpt>
   <trkpt lat="53.5464730" lon="-9.9311310">
    <ele>171.4</ele>
    <time>2025-12-24T14:37:34Z</time>
   </trkpt>
   <trkpt lat="53.5464780" lon="-9.9312100">
    <ele>170.0</ele>
    <time>2025-12-24T14:37:45Z</time>
   </trkpt>
   <trkpt lat="53.5464850" lon="-9.9312930">
    <ele>166.3</ele>
    <time>2025-12-24T14:38:10Z</time>
   </trkpt>
   <trkpt lat="53.5464850" lon="-9.9313750">
    <ele>165.9</ele>
    <time>2025-12-24T14:38:15Z</time>
   </trkpt>
   <trkpt lat="53.5464780" lon="-9.9314500">
    <ele>165.1</ele>
    <time>2025-12-24T14:38:22Z</time>
   </trkpt>
   <trkpt lat="53.5464570" lon="-9.9315200">
    <ele>164.3</ele>
    <time>2025-12-24T14:38:28Z</time>
   </trkpt>
   <trkpt lat="53.5464410" lon="-9.9315920">
    <ele>163.0</ele>
    <time>2025-12-24T14:38:36Z</time>
   </trkpt>
   <trkpt lat="53.5464340" lon="-9.9316730">
    <ele>162.1</ele>
    <time>2025-12-24T14:38:42Z</time>
   </trkpt>
   <trkpt lat="53.5463880" lon="-9.9316840">
    <ele>160.7</ele>
    <time>2025-12-24T14:38:51Z</time>
   </trkpt>
   <trkpt lat="53.5463700" lon="-9.9317550">
    <ele>159.5</ele>
    <time>2025-12-24T14:39:00Z</time>
   </trkpt>
   <trkpt lat="53.5463660" lon="-9.9318320">
    <ele>158.8</ele>
    <time>2025-12-24T14:39:05Z</time>
   </trkpt>
   <trkpt lat="53.5463800" lon="-9.9319070">
    <ele>157.9</ele>
    <time>2025-12-24T14:39:11Z</time>
   </trkpt>
   <trkpt lat="53.5463960" lon="-9.9320010">
    <ele>157.4</ele>
    <time>2025-12-24T14:39:17Z</time>
   </trkpt>
   <trkpt lat="53.5463850" lon="-9.9321050">
    <ele>156.7</ele>
    <time>2025-12-24T14:39:22Z</time>
   </trkpt>
   <trkpt lat="53.5463730" lon="-9.9322000">
    <ele>156.1</ele>
    <time>2025-12-24T14:39:27Z</time>
   </trkpt>
   <trkpt lat="53.5463720" lon="-9.9323000">
    <ele>155.4</ele>
    <time>2025-12-24T14:39:33Z</time>
   </trkpt>
   <trkpt lat="53.5463850" lon="-9.9324040">
    <ele>155.2</ele>
    <time>2025-12-24T14:39:38Z</time>
   </trkpt>
   <trkpt lat="53.5463960" lon="-9.9325130">
    <ele>155.0</ele>
    <time>2025-12-24T14:39:43Z</time>
   </trkpt>
   <trkpt lat="53.5463870" lon="-9.9326210">
    <ele>154.9</ele>
    <time>2025-12-24T14:39:49Z</time>
   </trkpt>
   <trkpt lat="53.5463820" lon="-9.9327320">
    <ele>154.7</ele>
    <time>2025-12-24T14:39:54Z</time>
   </trkpt>
   <trkpt lat="53.5463790" lon="-9.9328510">
    <ele>154.6</ele>
    <time>2025-12-24T14:40:00Z</time>
   </trkpt>
   <trkpt lat="53.5463750" lon="-9.9329450">
    <ele>154.9</ele>
    <time>2025-12-24T14:40:05Z</time>
   </trkpt>
   <trkpt lat="53.5463660" lon="-9.9330310">
    <ele>155.2</ele>
    <time>2025-12-24T14:40:10Z</time>
   </trkpt>
   <trkpt lat="53.5463490" lon="-9.9331230">
    <ele>155.5</ele>
    <time>2025-12-24T14:40:15Z</time>
   </trkpt>
   <trkpt lat="53.5463490" lon="-9.9332030">
    <ele>156.3</ele>
    <time>2025-12-24T14:40:23Z</time>
   </trkpt>
   <trkpt lat="53.5463500" lon="-9.9333440">
    <ele>156.5</ele>
    <time>2025-12-24T14:40:29Z</time>
   </trkpt>
   <trkpt lat="53.5463540" lon="-9.9334270">
    <ele>156.8</ele>
    <time>2025-12-24T14:40:34Z</time>
   </trkpt>
   <trkpt lat="53.5463300" lon="-9.9335250">
    <ele>157.2</ele>
    <time>2025-12-24T14:40:40Z</time>
   </trkpt>
   <trkpt lat="53.5463190" lon="-9.9336250">
    <ele>157.7</ele>
    <time>2025-12-24T14:40:45Z</time>
   </trkpt>
   <trkpt lat="53.5463150" lon="-9.9337300">
    <ele>158.2</ele>
    <time>2025-12-24T14:40:51Z</time>
   </trkpt>
   <trkpt lat="53.5463070" lon="-9.9338360">
    <ele>158.2</ele>
    <time>2025-12-24T14:40:56Z</time>
   </trkpt>
   <trkpt lat="53.5463040" lon="-9.9339300">
    <ele>157.7</ele>
    <time>2025-12-24T14:41:01Z</time>
   </trkpt>
   <trkpt lat="53.5462950" lon="-9.9340220">
    <ele>157.6</ele>
    <time>2025-12-24T14:41:07Z</time>
   </trkpt>
   <trkpt lat="53.5462890" lon="-9.9341030">
    <ele>157.2</ele>
    <time>2025-12-24T14:41:12Z</time>
   </trkpt>
   <trkpt lat="53.5462660" lon="-9.9341790">
    <ele>157.0</ele>
    <time>2025-12-24T14:41:17Z</time>
   </trkpt>
   <trkpt lat="53.5462200" lon="-9.9341840">
    <ele>157.0</ele>
    <time>2025-12-24T14:41:24Z</time>
   </trkpt>
   <trkpt lat="53.5462300" lon="-9.9342630">
    <ele>157.0</ele>
    <time>2025-12-24T14:41:30Z</time>
   </trkpt>
   <trkpt lat="53.5462050" lon="-9.9343290">
    <ele>156.2</ele>
    <time>2025-12-24T14:41:44Z</time>
   </trkpt>
   <trkpt lat="53.5461720" lon="-9.9343870">
    <ele>155.8</ele>
    <time>2025-12-24T14:41:49Z</time>
   </trkpt>
   <trkpt lat="53.5461250" lon="-9.9344050">
    <ele>156.6</ele>
    <time>2025-12-24T14:41:56Z</time>
   </trkpt>
   <trkpt lat="53.5460780" lon="-9.9344320">
    <ele>159.6</ele>
    <time>2025-12-24T14:42:04Z</time>
   </trkpt>
   <trkpt lat="53.5460450" lon="-9.9344830">
    <ele>154.8</ele>
    <time>2025-12-24T14:42:12Z</time>
   </trkpt>
   <trkpt lat="53.5459970" lon="-9.9345070">
    <ele>153.3</ele>
    <time>2025-12-24T14:42:19Z</time>
   </trkpt>
   <trkpt lat="53.5459520" lon="-9.9345150">
    <ele>152.5</ele>
    <time>2025-12-24T14:42:25Z</time>
   </trkpt>
   <trkpt lat="53.5459140" lon="-9.9344640">
    <ele>151.6</ele>
    <time>2025-12-24T14:42:31Z</time>
   </trkpt>
   <trkpt lat="53.5458520" lon="-9.9344090">
    <ele>151.0</ele>
    <time>2025-12-24T14:42:36Z</time>
   </trkpt>
   <trkpt lat="53.5458130" lon="-9.9344640">
    <ele>150.9</ele>
    <time>2025-12-24T14:42:41Z</time>
   </trkpt>
   <trkpt lat="53.5458160" lon="-9.9345590">
    <ele>150.7</ele>
    <time>2025-12-24T14:42:47Z</time>
   </trkpt>
   <trkpt lat="53.5457980" lon="-9.9346320">
    <ele>149.8</ele>
    <time>2025-12-24T14:42:53Z</time>
   </trkpt>
   <trkpt lat="53.5457760" lon="-9.9347010">
    <ele>148.1</ele>
    <time>2025-12-24T14:43:02Z</time>
   </trkpt>
   <trkpt lat="53.5457740" lon="-9.9347820">
    <ele>146.9</ele>
    <time>2025-12-24T14:43:09Z</time>
   </trkpt>
   <trkpt lat="53.5457690" lon="-9.9348770">
    <ele>145.7</ele>
    <time>2025-12-24T14:43:14Z</time>
   </trkpt>
   <trkpt lat="53.5457240" lon="-9.9348910">
    <ele>144.6</ele>
    <time>2025-12-24T14:43:20Z</time>
   </trkpt>
   <trkpt lat="53.5456820" lon="-9.9347780">
    <ele>143.6</ele>
    <time>2025-12-24T14:43:25Z</time>
   </trkpt>
   <trkpt lat="53.5456120" lon="-9.9347420">
    <ele>142.6</ele>
    <time>2025-12-24T14:43:30Z</time>
   </trkpt>
   <trkpt lat="53.5455590" lon="-9.9347240">
    <ele>142.0</ele>
    <time>2025-12-24T14:43:36Z</time>
   </trkpt>
   <trkpt lat="53.5455030" lon="-9.9347180">
    <ele>141.5</ele>
    <time>2025-12-24T14:43:41Z</time>
   </trkpt>
   <trkpt lat="53.5454540" lon="-9.9346720">
    <ele>140.9</ele>
    <time>2025-12-24T14:43:47Z</time>
   </trkpt>
   <trkpt lat="53.5454150" lon="-9.9346110">
    <ele>140.2</ele>
    <time>2025-12-24T14:43:52Z</time>
   </trkpt>
   <trkpt lat="53.5453730" lon="-9.9345790">
    <ele>139.6</ele>
    <time>2025-12-24T14:43:58Z</time>
   </trkpt>
   <trkpt lat="53.5453330" lon="-9.9345280">
    <ele>139.0</ele>
    <time>2025-12-24T14:44:05Z</time>
   </trkpt>
   <trkpt lat="53.5452990" lon="-9.9344690">
    <ele>138.6</ele>
    <time>2025-12-24T14:44:11Z</time>
   </trkpt>
   <trkpt lat="53.5452730" lon="-9.9344020">
    <ele>138.3</ele>
    <time>2025-12-24T14:44:16Z</time>
   </trkpt>
   <trkpt lat="53.5452550" lon="-9.9343310">
    <ele>137.5</ele>
    <time>2025-12-24T14:44:24Z</time>
   </trkpt>
   <trkpt lat="53.5452150" lon="-9.9342530">
    <ele>136.8</ele>
    <time>2025-12-24T14:44:29Z</time>
   </trkpt>
   <trkpt lat="53.5451880" lon="-9.9341800">
    <ele>135.9</ele>
    <time>2025-12-24T14:44:34Z</time>
   </trkpt>
   <trkpt lat="53.5451630" lon="-9.9340710">
    <ele>135.7</ele>
    <time>2025-12-24T14:44:40Z</time>
   </trkpt>
   <trkpt lat="53.5451420" lon="-9.9339830">
    <ele>135.9</ele>
    <time>2025-12-24T14:44:45Z</time>
   </trkpt>
   <trkpt lat="53.5451160" lon="-9.9339120">
    <ele>135.7</ele>
    <time>2025-12-24T14:44:51Z</time>
   </trkpt>
   <trkpt lat="53.5451060" lon="-9.9338050">
    <ele>135.5</ele>
    <time>2025-12-24T14:44:56Z</time>
   </trkpt>
   <trkpt lat="53.5450740" lon="-9.9337210">
    <ele>135.3</ele>
    <time>2025-12-24T14:45:01Z</time>
   </trkpt>
   <trkpt lat="53.5450470" lon="-9.9336360">
    <ele>134.9</ele>
    <time>2025-12-24T14:45:07Z</time>
   </trkpt>
   <trkpt lat="53.5450040" lon="-9.9335730">
    <ele>134.5</ele>
    <time>2025-12-24T14:45:12Z</time>
   </trkpt>
   <trkpt lat="53.5449480" lon="-9.9335500">
    <ele>133.9</ele>
    <time>2025-12-24T14:45:17Z</time>
   </trkpt>
   <trkpt lat="53.5449000" lon="-9.9335790">
    <ele>133.2</ele>
    <time>2025-12-24T14:45:22Z</time>
   </trkpt>
   <trkpt lat="53.5448390" lon="-9.9336100">
    <ele>132.4</ele>
    <time>2025-12-24T14:45:28Z</time>
   </trkpt>
   <trkpt lat="53.5447800" lon="-9.9336250">
    <ele>131.7</ele>
    <time>2025-12-24T14:45:33Z</time>
   </trkpt>
   <trkpt lat="53.5447400" lon="-9.9336670">
    <ele>131.4</ele>
    <time>2025-12-24T14:45:39Z</time>
   </trkpt>
   <trkpt lat="53.5447020" lon="-9.9337280">
    <ele>130.8</ele>
    <time>2025-12-24T14:45:44Z</time>
   </trkpt>
   <trkpt lat="53.5446610" lon="-9.9337850">
    <ele>129.9</ele>
    <time>2025-12-24T14:45:49Z</time>
   </trkpt>
   <trkpt lat="53.5446140" lon="-9.9338010">
    <ele>128.8</ele>
    <time>2025-12-24T14:45:57Z</time>
   </trkpt>
   <trkpt lat="53.5445710" lon="-9.9338230">
    <ele>126.9</ele>
    <time>2025-12-24T14:46:13Z</time>
   </trkpt>
   <trkpt lat="53.5444910" lon="-9.9338750">
    <ele>125.8</ele>
    <time>2025-12-24T14:46:19Z</time>
   </trkpt>
   <trkpt lat="53.5444310" lon="-9.9338670">
    <ele>124.4</ele>
    <time>2025-12-24T14:46:24Z</time>
   </trkpt>
   <trkpt lat="53.5443850" lon="-9.9338780">
    <ele>123.2</ele>
    <time>2025-12-24T14:46:29Z</time>
   </trkpt>
   <trkpt lat="53.5443360" lon="-9.9339210">
    <ele>122.3</ele>
    <time>2025-12-24T14:46:35Z</time>
   </trkpt>
   <trkpt lat="53.5442910" lon="-9.9339360">
    <ele>121.4</ele>
    <time>2025-12-24T14:46:41Z</time>
   </trkpt>
   <trkpt lat="53.5442460" lon="-9.9339470">
    <ele>120.1</ele>
    <time>2025-12-24T14:46:47Z</time>
   </trkpt>
   <trkpt lat="53.5441930" lon="-9.9339860">
    <ele>119.0</ele>
    <time>2025-12-24T14:46:52Z</time>
   </trkpt>
   <trkpt lat="53.5441550" lon="-9.9340330">
    <ele>117.9</ele>
    <time>2025-12-24T14:46:59Z</time>
   </trkpt>
   <trkpt lat="53.5441140" lon="-9.9340760">
    <ele>117.1</ele>
    <time>2025-12-24T14:47:05Z</time>
   </trkpt>
   <trkpt lat="53.5440810" lon="-9.9341320">
    <ele>115.8</ele>
    <time>2025-12-24T14:47:12Z</time>
   </trkpt>
   <trkpt lat="53.5440280" lon="-9.9341790">
    <ele>114.6</ele>
    <time>2025-12-24T14:47:17Z</time>
   </trkpt>
   <trkpt lat="53.5439850" lon="-9.9342010">
    <ele>113.5</ele>
    <time>2025-12-24T14:47:22Z</time>
   </trkpt>
   <trkpt lat="53.5439430" lon="-9.9343110">
    <ele>112.3</ele>
    <time>2025-12-24T14:47:28Z</time>
   </trkpt>
   <trkpt lat="53.5439090" lon="-9.9343750">
    <ele>111.3</ele>
    <time>2025-12-24T14:47:34Z</time>
   </trkpt>
   <trkpt lat="53.5438810" lon="-9.9344470">
    <ele>109.9</ele>
    <time>2025-12-24T14:47:40Z</time>
   </trkpt>
   <trkpt lat="53.5438380" lon="-9.9345060">
    <ele>108.8</ele>
    <time>2025-12-24T14:47:46Z</time>
   </trkpt>
   <trkpt lat="53.5438080" lon="-9.9345700">
    <ele>105.1</ele>
    <time>2025-12-24T14:48:15Z</time>
   </trkpt>
   <trkpt lat="53.5437520" lon="-9.9346900">
    <ele>104.2</ele>
    <time>2025-12-24T14:48:20Z</time>
   </trkpt>
   <trkpt lat="53.5437220" lon="-9.9348040">
    <ele>102.4</ele>
    <time>2025-12-24T14:48:25Z</time>
   </trkpt>
   <trkpt lat="53.5437750" lon="-9.9348170">
    <ele>100.6</ele>
    <time>2025-12-24T14:48:52Z</time>
   </trkpt>
   <trkpt lat="53.5438510" lon="-9.9349390">
    <ele>100.8</ele>
    <time>2025-12-24T14:48:57Z</time>
   </trkpt>
   <trkpt lat="53.5439070" lon="-9.9349830">
    <ele>101.3</ele>
    <time>2025-12-24T14:49:02Z</time>
   </trkpt>
   <trkpt lat="53.5439480" lon="-9.9350590">
    <ele>103.7</ele>
    <time>2025-12-24T14:49:08Z</time>
   </trkpt>
   <trkpt lat="53.5439880" lon="-9.9351310">
    <ele>105.2</ele>
    <time>2025-12-24T14:49:13Z</time>
   </trkpt>
   <trkpt lat="53.5440480" lon="-9.9351950">
    <ele>103.6</ele>
    <time>2025-12-24T14:49:18Z</time>
   </trkpt>
   <trkpt lat="53.5441040" lon="-9.9352410">
    <ele>102.6</ele>
    <time>2025-12-24T14:49:24Z</time>
   </trkpt>
   <trkpt lat="53.5441550" lon="-9.9352820">
    <ele>102.4</ele>
    <time>2025-12-24T14:49:29Z</time>
   </trkpt>
   <trkpt lat="53.5441990" lon="-9.9353350">
    <ele>102.3</ele>
    <time>2025-12-24T14:49:44Z</time>
   </trkpt>
   <trkpt lat="53.5442630" lon="-9.9354080">
    <ele>102.8</ele>
    <time>2025-12-24T14:49:50Z</time>
   </trkpt>
   <trkpt lat="53.5443070" lon="-9.9354420">
    <ele>103.3</ele>
    <time>2025-12-24T14:49:55Z</time>
   </trkpt>
   <trkpt lat="53.5443570" lon="-9.9355010">
    <ele>103.9</ele>
    <time>2025-12-24T14:50:00Z</time>
   </trkpt>
   <trkpt lat="53.5443950" lon="-9.9355930">
    <ele>104.4</ele>
    <time>2025-12-24T14:50:05Z</time>
   </trkpt>
   <trkpt lat="53.5444180" lon="-9.9356910">
    <ele>104.3</ele>
    <time>2025-12-24T14:50:11Z</time>
   </trkpt>
   <trkpt lat="53.5444430" lon="-9.9357970">
    <ele>103.6</ele>
    <time>2025-12-24T14:50:16Z</time>
   </trkpt>
   <trkpt lat="53.5444670" lon="-9.9358980">
    <ele>102.8</ele>
    <time>2025-12-24T14:50:21Z</time>
   </trkpt>
   <trkpt lat="53.5444920" lon="-9.9360000">
    <ele>102.2</ele>
    <time>2025-12-24T14:50:27Z</time>
   </trkpt>
   <trkpt lat="53.5445290" lon="-9.9360830">
    <ele>101.7</ele>
    <time>2025-12-24T14:50:32Z</time>
   </trkpt>
   <trkpt lat="53.5445600" lon="-9.9361780">
    <ele>101.5</ele>
    <time>2025-12-24T14:50:37Z</time>
   </trkpt>
   <trkpt lat="53.5446030" lon="-9.9362560">
    <ele>101.2</ele>
    <time>2025-12-24T14:50:43Z</time>
   </trkpt>
   <trkpt lat="53.5446420" lon="-9.9363390">
    <ele>101.0</ele>
    <time>2025-12-24T14:50:48Z</time>
   </trkpt>
   <trkpt lat="53.5446710" lon="-9.9364430">
    <ele>100.8</ele>
    <time>2025-12-24T14:50:54Z</time>
   </trkpt>
   <trkpt lat="53.5447090" lon="-9.9365200">
    <ele>100.6</ele>
    <time>2025-12-24T14:50:59Z</time>
   </trkpt>
   <trkpt lat="53.5447270" lon="-9.9366110">
    <ele>100.5</ele>
    <time>2025-12-24T14:51:04Z</time>
   </trkpt>
   <trkpt lat="53.5447630" lon="-9.9366760">
    <ele>100.6</ele>
    <time>2025-12-24T14:51:13Z</time>
   </trkpt>
   <trkpt lat="53.5448030" lon="-9.9367910">
    <ele>100.6</ele>
    <time>2025-12-24T14:51:18Z</time>
   </trkpt>
   <trkpt lat="53.5448350" lon="-9.9368890">
    <ele>100.6</ele>
    <time>2025-12-24T14:51:24Z</time>
   </trkpt>
   <trkpt lat="53.5448770" lon="-9.9369840">
    <ele>100.8</ele>
    <time>2025-12-24T14:51:29Z</time>
   </trkpt>
   <trkpt lat="53.5449190" lon="-9.9370470">
    <ele>101.0</ele>
    <time>2025-12-24T14:51:34Z</time>
   </trkpt>
   <trkpt lat="53.5449480" lon="-9.9371250">
    <ele>101.1</ele>
    <time>2025-12-24T14:51:39Z</time>
   </trkpt>
   <trkpt lat="53.5449720" lon="-9.9372210">
    <ele>101.2</ele>
    <time>2025-12-24T14:51:45Z</time>
   </trkpt>
   <trkpt lat="53.5449890" lon="-9.9373090">
    <ele>101.4</ele>
    <time>2025-12-24T14:51:50Z</time>
   </trkpt>
   <trkpt lat="53.5450060" lon="-9.9374090">
    <ele>101.2</ele>
    <time>2025-12-24T14:51:55Z</time>
   </trkpt>
   <trkpt lat="53.5450290" lon="-9.9375220">
    <ele>100.7</ele>
    <time>2025-12-24T14:52:01Z</time>
   </trkpt>
   <trkpt lat="53.5450350" lon="-9.9376280">
    <ele>99.9</ele>
    <time>2025-12-24T14:52:06Z</time>
   </trkpt>
   <trkpt lat="53.5450410" lon="-9.9377340">
    <ele>99.1</ele>
    <time>2025-12-24T14:52:11Z</time>
   </trkpt>
   <trkpt lat="53.5450440" lon="-9.9378430">
    <ele>98.6</ele>
    <time>2025-12-24T14:52:17Z</time>
   </trkpt>
   <trkpt lat="53.5450280" lon="-9.9379420">
    <ele>98.2</ele>
    <time>2025-12-24T14:52:22Z</time>
   </trkpt>
   <trkpt lat="53.5450320" lon="-9.9380500">
    <ele>97.8</ele>
    <time>2025-12-24T14:52:27Z</time>
   </trkpt>
   <trkpt lat="53.5450350" lon="-9.9381530">
    <ele>97.1</ele>
    <time>2025-12-24T14:52:33Z</time>
   </trkpt>
   <trkpt lat="53.5450480" lon="-9.9382510">
    <ele>96.7</ele>
    <time>2025-12-24T14:52:38Z</time>
   </trkpt>
   <trkpt lat="53.5450600" lon="-9.9383520">
    <ele>96.2</ele>
    <time>2025-12-24T14:52:43Z</time>
   </trkpt>
   <trkpt lat="53.5450670" lon="-9.9384650">
    <ele>96.0</ele>
    <time>2025-12-24T14:52:49Z</time>
   </trkpt>
   <trkpt lat="53.5450860" lon="-9.9385730">
    <ele>95.7</ele>
    <time>2025-12-24T14:52:54Z</time>
   </trkpt>
   <trkpt lat="53.5451170" lon="-9.9386660">
    <ele>95.5</ele>
    <time>2025-12-24T14:53:00Z</time>
   </trkpt>
   <trkpt lat="53.5451480" lon="-9.9387520">
    <ele>95.4</ele>
    <time>2025-12-24T14:53:05Z</time>
   </trkpt>
   <trkpt lat="53.5451750" lon="-9.9388350">
    <ele>95.1</ele>
    <time>2025-12-24T14:53:10Z</time>
   </trkpt>
   <trkpt lat="53.5451850" lon="-9.9389490">
    <ele>94.8</ele>
    <time>2025-12-24T14:53:16Z</time>
   </trkpt>
   <trkpt lat="53.5451860" lon="-9.9390610">
    <ele>94.5</ele>
    <time>2025-12-24T14:53:21Z</time>
   </trkpt>
   <trkpt lat="53.5451720" lon="-9.9391670">
    <ele>94.1</ele>
    <time>2025-12-24T14:53:26Z</time>
   </trkpt>
   <trkpt lat="53.5451480" lon="-9.9392860">
    <ele>93.7</ele>
    <time>2025-12-24T14:53:32Z</time>
   </trkpt>
   <trkpt lat="53.5451290" lon="-9.9393820">
    <ele>93.0</ele>
    <time>2025-12-24T14:53:37Z</time>
   </trkpt>
   <trkpt lat="53.5451290" lon="-9.9394750">
    <ele>92.1</ele>
    <time>2025-12-24T14:53:42Z</time>
   </trkpt>
   <trkpt lat="53.5451300" lon="-9.9395780">
    <ele>91.6</ele>
    <time>2025-12-24T14:53:48Z</time>
   </trkpt>
   <trkpt lat="53.5451420" lon="-9.9396790">
    <ele>90.9</ele>
    <time>2025-12-24T14:53:53Z</time>
   </trkpt>
   <trkpt lat="53.5451580" lon="-9.9397710">
    <ele>90.4</ele>
    <time>2025-12-24T14:53:59Z</time>
   </trkpt>
   <trkpt lat="53.5451740" lon="-9.9398690">
    <ele>89.8</ele>
    <time>2025-12-24T14:54:04Z</time>
   </trkpt>
   <trkpt lat="53.5451920" lon="-9.9399700">
    <ele>89.2</ele>
    <time>2025-12-24T14:54:10Z</time>
   </trkpt>
   <trkpt lat="53.5452080" lon="-9.9400660">
    <ele>88.7</ele>
    <time>2025-12-24T14:54:15Z</time>
   </trkpt>
   <trkpt lat="53.5452360" lon="-9.9401570">
    <ele>88.2</ele>
    <time>2025-12-24T14:54:20Z</time>
   </trkpt>
   <trkpt lat="53.5452820" lon="-9.9402350">
    <ele>87.8</ele>
    <time>2025-12-24T14:54:26Z</time>
   </trkpt>
   <trkpt lat="53.5453220" lon="-9.9403020">
    <ele>87.7</ele>
    <time>2025-12-24T14:54:31Z</time>
   </trkpt>
   <trkpt lat="53.5453730" lon="-9.9403660">
    <ele>87.6</ele>
    <time>2025-12-24T14:54:36Z</time>
   </trkpt>
   <trkpt lat="53.5453880" lon="-9.9404380">
    <ele>87.9</ele>
    <time>2025-12-24T14:54:49Z</time>
   </trkpt>
   <trkpt lat="53.5454250" lon="-9.9405860">
    <ele>88.2</ele>
    <time>2025-12-24T14:54:54Z</time>
   </trkpt>
   <trkpt lat="53.5454580" lon="-9.9406830">
    <ele>88.0</ele>
    <time>2025-12-24T14:54:59Z</time>
   </trkpt>
   <trkpt lat="53.5454990" lon="-9.9407730">
    <ele>87.7</ele>
    <time>2025-12-24T14:55:04Z</time>
   </trkpt>
   <trkpt lat="53.5455370" lon="-9.9408440">
    <ele>87.6</ele>
    <time>2025-12-24T14:55:10Z</time>
   </trkpt>
   <trkpt lat="53.5455880" lon="-9.9409200">
    <ele>87.9</ele>
    <time>2025-12-24T14:55:15Z</time>
   </trkpt>
   <trkpt lat="53.5456270" lon="-9.9409890">
    <ele>87.9</ele>
    <time>2025-12-24T14:55:20Z</time>
   </trkpt>
   <trkpt lat="53.5456520" lon="-9.9411080">
    <ele>87.3</ele>
    <time>2025-12-24T14:55:26Z</time>
   </trkpt>
   <trkpt lat="53.5456970" lon="-9.9412040">
    <ele>87.6</ele>
    <time>2025-12-24T14:55:31Z</time>
   </trkpt>
   <trkpt lat="53.5457330" lon="-9.9412950">
    <ele>87.9</ele>
    <time>2025-12-24T14:55:36Z</time>
   </trkpt>
   <trkpt lat="53.5457700" lon="-9.9413780">
    <ele>88.0</ele>
    <time>2025-12-24T14:55:42Z</time>
   </trkpt>
   <trkpt lat="53.5458070" lon="-9.9414490">
    <ele>87.9</ele>
    <time>2025-12-24T14:55:47Z</time>
   </trkpt>
   <trkpt lat="53.5458480" lon="-9.9415380">
    <ele>87.6</ele>
    <time>2025-12-24T14:55:52Z</time>
   </trkpt>
   <trkpt lat="53.5458970" lon="-9.9416170">
    <ele>87.2</ele>
    <time>2025-12-24T14:55:58Z</time>
   </trkpt>
   <trkpt lat="53.5459320" lon="-9.9417150">
    <ele>86.9</ele>
    <time>2025-12-24T14:56:03Z</time>
   </trkpt>
   <trkpt lat="53.5459640" lon="-9.9418030">
    <ele>86.9</ele>
    <time>2025-12-24T14:56:08Z</time>
   </trkpt>
   <trkpt lat="53.5460020" lon="-9.9418890">
    <ele>87.0</ele>
    <time>2025-12-24T14:56:14Z</time>
   </trkpt>
   <trkpt lat="53.5460350" lon="-9.9419670">
    <ele>86.9</ele>
    <time>2025-12-24T14:56:19Z</time>
   </trkpt>
   <trkpt lat="53.5460670" lon="-9.9420690">
    <ele>86.8</ele>
    <time>2025-12-24T14:56:24Z</time>
   </trkpt>
   <trkpt lat="53.5461110" lon="-9.9421550">
    <ele>87.0</ele>
    <time>2025-12-24T14:56:30Z</time>
   </trkpt>
   <trkpt lat="53.5461490" lon="-9.9422300">
    <ele>87.2</ele>
    <time>2025-12-24T14:56:35Z</time>
   </trkpt>
   <trkpt lat="53.5461860" lon="-9.9423300">
    <ele>87.4</ele>
    <time>2025-12-24T14:56:41Z</time>
   </trkpt>
   <trkpt lat="53.5462240" lon="-9.9424110">
    <ele>87.2</ele>
    <time>2025-12-24T14:56:46Z</time>
   </trkpt>
   <trkpt lat="53.5462530" lon="-9.9425010">
    <ele>87.0</ele>
    <time>2025-12-24T14:56:51Z</time>
   </trkpt>
   <trkpt lat="53.5463010" lon="-9.9425860">
    <ele>87.0</ele>
    <time>2025-12-24T14:56:57Z</time>
   </trkpt>
   <trkpt lat="53.5463560" lon="-9.9426540">
    <ele>87.2</ele>
    <time>2025-12-24T14:57:02Z</time>
   </trkpt>
   <trkpt lat="53.5464050" lon="-9.9427050">
    <ele>87.9</ele>
    <time>2025-12-24T14:57:07Z</time>
   </trkpt>
   <trkpt lat="53.5464570" lon="-9.9427520">
    <ele>88.5</ele>
    <time>2025-12-24T14:57:13Z</time>
   </trkpt>
   <trkpt lat="53.5464990" lon="-9.9428170">
    <ele>89.1</ele>
    <time>2025-12-24T14:57:18Z</time>
   </trkpt>
   <trkpt lat="53.5465480" lon="-9.9428940">
    <ele>89.5</ele>
    <time>2025-12-24T14:57:24Z</time>
   </trkpt>
   <trkpt lat="53.5465870" lon="-9.9429830">
    <ele>89.5</ele>
    <time>2025-12-24T14:57:29Z</time>
   </trkpt>
   <trkpt lat="53.5466310" lon="-9.9430650">
    <ele>89.6</ele>
    <time>2025-12-24T14:57:34Z</time>
   </trkpt>
   <trkpt lat="53.5466430" lon="-9.9431380">
    <ele>89.5</ele>
    <time>2025-12-24T14:57:39Z</time>
   </trkpt>
   <trkpt lat="53.5466820" lon="-9.9432220">
    <ele>89.2</ele>
    <time>2025-12-24T14:57:45Z</time>
   </trkpt>
   <trkpt lat="53.5467360" lon="-9.9432680">
    <ele>89.1</ele>
    <time>2025-12-24T14:57:50Z</time>
   </trkpt>
   <trkpt lat="53.5467920" lon="-9.9433120">
    <ele>89.1</ele>
    <time>2025-12-24T14:57:55Z</time>
   </trkpt>
   <trkpt lat="53.5468450" lon="-9.9433550">
    <ele>89.5</ele>
    <time>2025-12-24T14:58:01Z</time>
   </trkpt>
   <trkpt lat="53.5468930" lon="-9.9433830">
    <ele>89.8</ele>
    <time>2025-12-24T14:58:06Z</time>
   </trkpt>
   <trkpt lat="53.5469400" lon="-9.9434270">
    <ele>89.9</ele>
    <time>2025-12-24T14:58:11Z</time>
   </trkpt>
   <trkpt lat="53.5469980" lon="-9.9434800">
    <ele>89.8</ele>
    <time>2025-12-24T14:58:16Z</time>
   </trkpt>
   <trkpt lat="53.5470630" lon="-9.9435180">
    <ele>89.7</ele>
    <time>2025-12-24T14:58:22Z</time>
   </trkpt>
   <trkpt lat="53.5471170" lon="-9.9435460">
    <ele>89.5</ele>
    <time>2025-12-24T14:58:27Z</time>
   </trkpt>
   <trkpt lat="53.5471780" lon="-9.9435720">
    <ele>89.2</ele>
    <time>2025-12-24T14:58:32Z</time>
   </trkpt>
   <trkpt lat="53.5472370" lon="-9.9435990">
    <ele>88.8</ele>
    <time>2025-12-24T14:58:38Z</time>
   </trkpt>
   <trkpt lat="53.5472980" lon="-9.9436560">
    <ele>88.5</ele>
    <time>2025-12-24T14:58:43Z</time>
   </trkpt>
   <trkpt lat="53.5473610" lon="-9.9437130">
    <ele>88.1</ele>
    <time>2025-12-24T14:58:48Z</time>
   </trkpt>
   <trkpt lat="53.5473990" lon="-9.9438020">
    <ele>87.3</ele>
    <time>2025-12-24T14:58:53Z</time>
   </trkpt>
   <trkpt lat="53.5474250" lon="-9.9439060">
    <ele>86.8</ele>
    <time>2025-12-24T14:58:59Z</time>
   </trkpt>
   <trkpt lat="53.5474450" lon="-9.9440040">
    <ele>86.1</ele>
    <time>2025-12-24T14:59:04Z</time>
   </trkpt>
   <trkpt lat="53.5474590" lon="-9.9441050">
    <ele>85.2</ele>
    <time>2025-12-24T14:59:09Z</time>
   </trkpt>
   <trkpt lat="53.5474840" lon="-9.9442030">
    <ele>84.7</ele>
    <time>2025-12-24T14:59:14Z</time>
   </trkpt>
   <trkpt lat="53.5474910" lon="-9.9443170">
    <ele>84.4</ele>
    <time>2025-12-24T14:59:19Z</time>
   </trkpt>
   <trkpt lat="53.5475090" lon="-9.9444180">
    <ele>84.0</ele>
    <time>2025-12-24T14:59:25Z</time>
   </trkpt>
   <trkpt lat="53.5475440" lon="-9.9445040">
    <ele>83.7</ele>
    <time>2025-12-24T14:59:30Z</time>
   </trkpt>
   <trkpt lat="53.5475780" lon="-9.9445830">
    <ele>83.3</ele>
    <time>2025-12-24T14:59:35Z</time>
   </trkpt>
   <trkpt lat="53.5476030" lon="-9.9446850">
    <ele>83.2</ele>
    <time>2025-12-24T14:59:41Z</time>
   </trkpt>
   <trkpt lat="53.5476170" lon="-9.9447820">
    <ele>83.4</ele>
    <time>2025-12-24T14:59:46Z</time>
   </trkpt>
   <trkpt lat="53.5476630" lon="-9.9447660">
    <ele>83.5</ele>
    <time>2025-12-24T14:59:55Z</time>
   </trkpt>
   <trkpt lat="53.5477350" lon="-9.9447850">
    <ele>83.8</ele>
    <time>2025-12-24T15:00:00Z</time>
   </trkpt>
   <trkpt lat="53.5477820" lon="-9.9447430">
    <ele>84.0</ele>
    <time>2025-12-24T15:00:06Z</time>
   </trkpt>
   <trkpt lat="53.5478600" lon="-9.9447200">
    <ele>84.4</ele>
    <time>2025-12-24T15:00:11Z</time>
   </trkpt>
   <trkpt lat="53.5479240" lon="-9.9446990">
    <ele>85.1</ele>
    <time>2025-12-24T15:00:16Z</time>
   </trkpt>
   <trkpt lat="53.5479840" lon="-9.9446560">
    <ele>85.4</ele>
    <time>2025-12-24T15:00:21Z</time>
   </trkpt>
   <trkpt lat="53.5480420" lon="-9.9446460">
    <ele>85.6</ele>
    <time>2025-12-24T15:00:27Z</time>
   </trkpt>
   <trkpt lat="53.5481000" lon="-9.9446170">
    <ele>85.6</ele>
    <time>2025-12-24T15:00:32Z</time>
   </trkpt>
   <trkpt lat="53.5481510" lon="-9.9445890">
    <ele>85.4</ele>
    <time>2025-12-24T15:00:37Z</time>
   </trkpt>
   <trkpt lat="53.5482230" lon="-9.9445620">
    <ele>85.4</ele>
    <time>2025-12-24T15:00:43Z</time>
   </trkpt>
   <trkpt lat="53.5482920" lon="-9.9445450">
    <ele>85.5</ele>
    <time>2025-12-24T15:00:48Z</time>
   </trkpt>
   <trkpt lat="53.5483590" lon="-9.9445150">
    <ele>85.5</ele>
    <time>2025-12-24T15:00:54Z</time>
   </trkpt>
   <trkpt lat="53.5484200" lon="-9.9445040">
    <ele>85.1</ele>
    <time>2025-12-24T15:00:59Z</time>
   </trkpt>
   <trkpt lat="53.5484810" lon="-9.9445180">
    <ele>84.4</ele>
    <time>2025-12-24T15:01:05Z</time>
   </trkpt>
   <trkpt lat="53.5485280" lon="-9.9445300">
    <ele>83.8</ele>
    <time>2025-12-24T15:01:10Z</time>
   </trkpt>
   <trkpt lat="53.5485740" lon="-9.9445420">
    <ele>81.4</ele>
    <time>2025-12-24T15:01:48Z</time>
   </trkpt>
   <trkpt lat="53.5486180" lon="-9.9445690">
    <ele>81.2</ele>
    <time>2025-12-24T15:01:54Z</time>
   </trkpt>
   <trkpt lat="53.5486720" lon="-9.9446120">
    <ele>80.6</ele>
    <time>2025-12-24T15:02:00Z</time>
   </trkpt>
   <trkpt lat="53.5487240" lon="-9.9446280">
    <ele>80.3</ele>
    <time>2025-12-24T15:02:05Z</time>
   </trkpt>
   <trkpt lat="53.5487810" lon="-9.9446650">
    <ele>80.1</ele>
    <time>2025-12-24T15:02:11Z</time>
   </trkpt>
   <trkpt lat="53.5488380" lon="-9.9446730">
    <ele>79.7</ele>
    <time>2025-12-24T15:02:16Z</time>
   </trkpt>
   <trkpt lat="53.5488900" lon="-9.9446920">
    <ele>79.4</ele>
    <time>2025-12-24T15:02:22Z</time>
   </trkpt>
   <trkpt lat="53.5489500" lon="-9.9447110">
    <ele>79.0</ele>
    <time>2025-12-24T15:02:27Z</time>
   </trkpt>
   <trkpt lat="53.5489980" lon="-9.9447090">
    <ele>78.6</ele>
    <time>2025-12-24T15:02:33Z</time>
   </trkpt>
   <trkpt lat="53.5490570" lon="-9.9447080">
    <ele>78.0</ele>
    <time>2025-12-24T15:02:38Z</time>
   </trkpt>
   <trkpt lat="53.5491240" lon="-9.9447290">
    <ele>77.5</ele>
    <time>2025-12-24T15:02:44Z</time>
   </trkpt>
   <trkpt lat="53.5491760" lon="-9.9447170">
    <ele>76.9</ele>
    <time>2025-12-24T15:02:49Z</time>
   </trkpt>
   <trkpt lat="53.5492260" lon="-9.9447150">
    <ele>76.1</ele>
    <time>2025-12-24T15:02:55Z</time>
   </trkpt>
   <trkpt lat="53.5492900" lon="-9.9447260">
    <ele>75.5</ele>
    <time>2025-12-24T15:03:00Z</time>
   </trkpt>
   <trkpt lat="53.5493530" lon="-9.9447440">
    <ele>75.2</ele>
    <time>2025-12-24T15:03:05Z</time>
   </trkpt>
   <trkpt lat="53.5494210" lon="-9.9447910">
    <ele>74.8</ele>
    <time>2025-12-24T15:03:11Z</time>
   </trkpt>
   <trkpt lat="53.5494720" lon="-9.9448430">
    <ele>74.5</ele>
    <time>2025-12-24T15:03:16Z</time>
   </trkpt>
   <trkpt lat="53.5495180" lon="-9.9448980">
    <ele>74.3</ele>
    <time>2025-12-24T15:03:21Z</time>
   </trkpt>
   <trkpt lat="53.5495650" lon="-9.9449500">
    <ele>73.7</ele>
    <time>2025-12-24T15:03:27Z</time>
   </trkpt>
   <trkpt lat="53.5496280" lon="-9.9449730">
    <ele>73.0</ele>
    <time>2025-12-24T15:03:32Z</time>
   </trkpt>
   <trkpt lat="53.5496950" lon="-9.9449740">
    <ele>72.3</ele>
    <time>2025-12-24T15:03:38Z</time>
   </trkpt>
   <trkpt lat="53.5497570" lon="-9.9449410">
    <ele>71.6</ele>
    <time>2025-12-24T15:03:43Z</time>
   </trkpt>
   <trkpt lat="53.5498150" lon="-9.9448340">
    <ele>71.1</ele>
    <time>2025-12-24T15:03:49Z</time>
   </trkpt>
   <trkpt lat="53.5498370" lon="-9.9447480">
    <ele>70.6</ele>
    <time>2025-12-24T15:03:54Z</time>
   </trkpt>
   <trkpt lat="53.5498700" lon="-9.9446620">
    <ele>70.4</ele>
    <time>2025-12-24T15:04:00Z</time>
   </trkpt>
   <trkpt lat="53.5499230" lon="-9.9446050">
    <ele>69.9</ele>
    <time>2025-12-24T15:04:05Z</time>
   </trkpt>
   <trkpt lat="53.5499870" lon="-9.9445550">
    <ele>69.2</ele>
    <time>2025-12-24T15:04:11Z</time>
   </trkpt>
   <trkpt lat="53.5500400" lon="-9.9445660">
    <ele>68.4</ele>
    <time>2025-12-24T15:04:16Z</time>
   </trkpt>
   <trkpt lat="53.5500890" lon="-9.9446130">
    <ele>67.2</ele>
    <time>2025-12-24T15:04:22Z</time>
   </trkpt>
   <trkpt lat="53.5501360" lon="-9.9446690">
    <ele>65.6</ele>
    <time>2025-12-24T15:04:27Z</time>
   </trkpt>
   <trkpt lat="53.5501770" lon="-9.9447010">
    <ele>64.4</ele>
    <time>2025-12-24T15:04:33Z</time>
   </trkpt>
   <trkpt lat="53.5502250" lon="-9.9447470">
    <ele>63.5</ele>
    <time>2025-12-24T15:04:38Z</time>
   </trkpt>
   <trkpt lat="53.5502840" lon="-9.9447880">
    <ele>62.6</ele>
    <time>2025-12-24T15:04:44Z</time>
   </trkpt>
   <trkpt lat="53.5503560" lon="-9.9448310">
    <ele>61.6</ele>
    <time>2025-12-24T15:04:49Z</time>
   </trkpt>
   <trkpt lat="53.5503970" lon="-9.9448830">
    <ele>60.7</ele>
    <time>2025-12-24T15:04:55Z</time>
   </trkpt>
   <trkpt lat="53.5504480" lon="-9.9449580">
    <ele>60.2</ele>
    <time>2025-12-24T15:05:00Z</time>
   </trkpt>
   <trkpt lat="53.5504720" lon="-9.9450410">
    <ele>60.1</ele>
    <time>2025-12-24T15:05:06Z</time>
   </trkpt>
   <trkpt lat="53.5505000" lon="-9.9451320">
    <ele>60.5</ele>
    <time>2025-12-24T15:05:11Z</time>
   </trkpt>
   <trkpt lat="53.5505390" lon="-9.9452060">
    <ele>60.8</ele>
    <time>2025-12-24T15:05:17Z</time>
   </trkpt>
   <trkpt lat="53.5505810" lon="-9.9452730">
    <ele>61.2</ele>
    <time>2025-12-24T15:05:22Z</time>
   </trkpt>
   <trkpt lat="53.5505960" lon="-9.9453480">
    <ele>61.9</ele>
    <time>2025-12-24T15:05:27Z</time>
   </trkpt>
   <trkpt lat="53.5506320" lon="-9.9454210">
    <ele>62.4</ele>
    <time>2025-12-24T15:05:32Z</time>
   </trkpt>
   <trkpt lat="53.5506740" lon="-9.9455010">
    <ele>62.8</ele>
    <time>2025-12-24T15:05:38Z</time>
   </trkpt>
   <trkpt lat="53.5506730" lon="-9.9455780">
    <ele>63.2</ele>
    <time>2025-12-24T15:05:49Z</time>
   </trkpt>
   <trkpt lat="53.5506290" lon="-9.9455980">
    <ele>63.0</ele>
    <time>2025-12-24T15:06:03Z</time>
   </trkpt>
   <trkpt lat="53.5505870" lon="-9.9455570">
    <ele>63.0</ele>
    <time>2025-12-24T15:06:23Z</time>
   </trkpt>
   <trkpt lat="53.5505410" lon="-9.9455200">
    <ele>63.3</ele>
    <time>2025-12-24T15:06:46Z</time>
   </trkpt>
   <trkpt lat="53.5504760" lon="-9.9454920">
    <ele>63.4</ele>
    <time>2025-12-24T15:06:51Z</time>
   </trkpt>
   <trkpt lat="53.5504000" lon="-9.9455330">
    <ele>63.6</ele>
    <time>2025-12-24T15:06:57Z</time>
   </trkpt>
   <trkpt lat="53.5503480" lon="-9.9455630">
    <ele>64.0</ele>
    <time>2025-12-24T15:07:02Z</time>
   </trkpt>
  </trkseg>
 </trk>
</gpx>
